<?xml version="1.0" encoding="UTF-8" standalone="no" ?>
<gpx xmlns="http://www.topografix.com/GPX/1/1" xmlns:xsi="http://www.w3.org/2001/XMLSchema-instance" xsi:schemaLocation="http://www.topografix.com/GPX/1/1 http://www.topografix.com/GPX/1/1/gpx.xsd" version="1.1" creator="VisuGPX - https://www.visugpx.com">
  <metadata>
    <name>ST_RAD_9km</name>
    <desc><![CDATA[sortie 9km]]></desc>
  </metadata>
  <trk>
    <name><![CDATA[st RA 9km--]]></name>
    <trkseg>
      <trkpt lat="44.33563" lon="2.63035">
        <ele>659.1210938</ele>
        <time>2014-08-05T04:37:33Z</time>
      </trkpt>
      <trkpt lat="44.33561" lon="2.6305">
        <ele>643.2592773</ele>
        <time>2014-08-05T04:37:37Z</time>
      </trkpt>
      <trkpt lat="44.33562" lon="2.63065">
        <ele>641.8173828</ele>
        <time>2014-08-05T04:37:41Z</time>
      </trkpt>
      <trkpt lat="44.33559" lon="2.63086">
        <ele>638.4528809</ele>
        <time>2014-08-05T04:37:47Z</time>
      </trkpt>
      <trkpt lat="44.33558" lon="2.631">
        <ele>636.5302734</ele>
        <time>2014-08-05T04:37:51Z</time>
      </trkpt>
      <trkpt lat="44.33551" lon="2.6312">
        <ele>636.0495605</ele>
        <time>2014-08-05T04:37:57Z</time>
      </trkpt>
      <trkpt lat="44.33547" lon="2.6313">
        <ele>636.5302734</ele>
        <time>2014-08-05T04:38:01Z</time>
      </trkpt>
      <trkpt lat="44.33542" lon="2.63145">
        <ele>636.5302734</ele>
        <time>2014-08-05T04:38:05Z</time>
      </trkpt>
      <trkpt lat="44.33536" lon="2.63166">
        <ele>637.972168</ele>
        <time>2014-08-05T04:38:10Z</time>
      </trkpt>
      <trkpt lat="44.33533" lon="2.63175">
        <ele>638.9335938</ele>
        <time>2014-08-05T04:38:13Z</time>
      </trkpt>
      <trkpt lat="44.33526" lon="2.63196">
        <ele>639.4140625</ele>
        <time>2014-08-05T04:38:19Z</time>
      </trkpt>
      <trkpt lat="44.3352" lon="2.63217">
        <ele>638.9335938</ele>
        <time>2014-08-05T04:38:25Z</time>
      </trkpt>
      <trkpt lat="44.33517" lon="2.63239">
        <ele>636.5302734</ele>
        <time>2014-08-05T04:38:31Z</time>
      </trkpt>
      <trkpt lat="44.33513" lon="2.63251">
        <ele>635.5686035</ele>
        <time>2014-08-05T04:38:35Z</time>
      </trkpt>
      <trkpt lat="44.33508" lon="2.63267">
        <ele>636.0495605</ele>
        <time>2014-08-05T04:38:40Z</time>
      </trkpt>
      <trkpt lat="44.33502" lon="2.63289">
        <ele>636.5302734</ele>
        <time>2014-08-05T04:38:46Z</time>
      </trkpt>
      <trkpt lat="44.33499" lon="2.63302">
        <ele>635.5686035</ele>
        <time>2014-08-05T04:38:50Z</time>
      </trkpt>
      <trkpt lat="44.33497" lon="2.63312">
        <ele>636.0495605</ele>
        <time>2014-08-05T04:38:53Z</time>
      </trkpt>
      <trkpt lat="44.33492" lon="2.63331">
        <ele>635.5686035</ele>
        <time>2014-08-05T04:38:58Z</time>
      </trkpt>
      <trkpt lat="44.33489" lon="2.63346">
        <ele>634.126709</ele>
        <time>2014-08-05T04:39:02Z</time>
      </trkpt>
      <trkpt lat="44.33487" lon="2.63356">
        <ele>632.6848145</ele>
        <time>2014-08-05T04:39:05Z</time>
      </trkpt>
      <trkpt lat="44.33486" lon="2.63372">
        <ele>632.2041016</ele>
        <time>2014-08-05T04:39:10Z</time>
      </trkpt>
      <trkpt lat="44.33482" lon="2.63392">
        <ele>629.3200684</ele>
        <time>2014-08-05T04:39:15Z</time>
      </trkpt>
      <trkpt lat="44.33483" lon="2.63406">
        <ele>628.3588867</ele>
        <time>2014-08-05T04:39:23Z</time>
      </trkpt>
      <trkpt lat="44.33482" lon="2.63415">
        <ele>629.3200684</ele>
        <time>2014-08-05T04:39:28Z</time>
      </trkpt>
      <trkpt lat="44.33482" lon="2.63418">
        <ele>629.8007813</ele>
        <time>2014-08-05T04:39:31Z</time>
      </trkpt>
      <trkpt lat="44.33481" lon="2.63429">
        <ele>629.8007813</ele>
        <time>2014-08-05T04:39:36Z</time>
      </trkpt>
      <trkpt lat="44.33477" lon="2.6344">
        <ele>631.7233887</ele>
        <time>2014-08-05T04:39:39Z</time>
      </trkpt>
      <trkpt lat="44.33471" lon="2.63452">
        <ele>636.0495605</ele>
        <time>2014-08-05T04:39:43Z</time>
      </trkpt>
      <trkpt lat="44.33465" lon="2.63469">
        <ele>637.4914551</ele>
        <time>2014-08-05T04:39:48Z</time>
      </trkpt>
      <trkpt lat="44.33462" lon="2.63479">
        <ele>638.4528809</ele>
        <time>2014-08-05T04:39:52Z</time>
      </trkpt>
      <trkpt lat="44.33457" lon="2.63491">
        <ele>639.8947754</ele>
        <time>2014-08-05T04:39:56Z</time>
      </trkpt>
      <trkpt lat="44.33452" lon="2.6351">
        <ele>640.855957</ele>
        <time>2014-08-05T04:40:01Z</time>
      </trkpt>
      <trkpt lat="44.33449" lon="2.63523">
        <ele>639.4140625</ele>
        <time>2014-08-05T04:40:05Z</time>
      </trkpt>
      <trkpt lat="44.33447" lon="2.63546">
        <ele>638.4528809</ele>
        <time>2014-08-05T04:40:11Z</time>
      </trkpt>
      <trkpt lat="44.33445" lon="2.63564">
        <ele>635.5686035</ele>
        <time>2014-08-05T04:40:16Z</time>
      </trkpt>
      <trkpt lat="44.33441" lon="2.63575">
        <ele>635.5686035</ele>
        <time>2014-08-05T04:40:20Z</time>
      </trkpt>
      <trkpt lat="44.33434" lon="2.63585">
        <ele>635.0881348</ele>
        <time>2014-08-05T04:40:24Z</time>
      </trkpt>
      <trkpt lat="44.33426" lon="2.63596">
        <ele>634.6074219</ele>
        <time>2014-08-05T04:40:29Z</time>
      </trkpt>
      <trkpt lat="44.33419" lon="2.63605">
        <ele>633.1652832</ele>
        <time>2014-08-05T04:40:33Z</time>
      </trkpt>
      <trkpt lat="44.33412" lon="2.63613">
        <ele>634.126709</ele>
        <time>2014-08-05T04:40:38Z</time>
      </trkpt>
      <trkpt lat="44.33408" lon="2.63618">
        <ele>636.0495605</ele>
        <time>2014-08-05T04:40:42Z</time>
      </trkpt>
      <trkpt lat="44.33407" lon="2.63619">
        <ele>637.0107422</ele>
        <time>2014-08-05T04:40:43Z</time>
      </trkpt>
      <trkpt lat="44.33397" lon="2.63633">
        <ele>640.3754883</ele>
        <time>2014-08-05T04:40:50Z</time>
      </trkpt>
      <trkpt lat="44.33392" lon="2.63641">
        <ele>642.2980957</ele>
        <time>2014-08-05T04:40:54Z</time>
      </trkpt>
      <trkpt lat="44.33386" lon="2.63651">
        <ele>647.1044922</ele>
        <time>2014-08-05T04:41:00Z</time>
      </trkpt>
      <trkpt lat="44.33379" lon="2.63661">
        <ele>649.9885254</ele>
        <time>2014-08-05T04:41:06Z</time>
      </trkpt>
      <trkpt lat="44.33369" lon="2.63676">
        <ele>655.7565918</ele>
        <time>2014-08-05T04:41:13Z</time>
      </trkpt>
      <trkpt lat="44.33363" lon="2.63693">
        <ele>658.1599121</ele>
        <time>2014-08-05T04:41:18Z</time>
      </trkpt>
      <trkpt lat="44.33358" lon="2.63702">
        <ele>661.0437012</ele>
        <time>2014-08-05T04:41:22Z</time>
      </trkpt>
      <trkpt lat="44.33353" lon="2.63716">
        <ele>662.005127</ele>
        <time>2014-08-05T04:41:28Z</time>
      </trkpt>
      <trkpt lat="44.3335" lon="2.63729">
        <ele>662.4855957</ele>
        <time>2014-08-05T04:41:32Z</time>
      </trkpt>
      <trkpt lat="44.33343" lon="2.63752">
        <ele>663.9274902</ele>
        <time>2014-08-05T04:41:40Z</time>
      </trkpt>
      <trkpt lat="44.3334" lon="2.63763">
        <ele>662.9663086</ele>
        <time>2014-08-05T04:41:44Z</time>
      </trkpt>
      <trkpt lat="44.33338" lon="2.63779">
        <ele>662.005127</ele>
        <time>2014-08-05T04:41:50Z</time>
      </trkpt>
      <trkpt lat="44.33333" lon="2.63792">
        <ele>662.9663086</ele>
        <time>2014-08-05T04:41:55Z</time>
      </trkpt>
      <trkpt lat="44.33329" lon="2.63806">
        <ele>661.5244141</ele>
        <time>2014-08-05T04:42:00Z</time>
      </trkpt>
      <trkpt lat="44.33326" lon="2.63818">
        <ele>662.4855957</ele>
        <time>2014-08-05T04:42:05Z</time>
      </trkpt>
      <trkpt lat="44.33323" lon="2.63835">
        <ele>663.4470215</ele>
        <time>2014-08-05T04:42:11Z</time>
      </trkpt>
      <trkpt lat="44.3332" lon="2.63849">
        <ele>665.3696289</ele>
        <time>2014-08-05T04:42:16Z</time>
      </trkpt>
      <trkpt lat="44.33317" lon="2.63862">
        <ele>664.4082031</ele>
        <time>2014-08-05T04:42:21Z</time>
      </trkpt>
      <trkpt lat="44.33314" lon="2.63873">
        <ele>662.4855957</ele>
        <time>2014-08-05T04:42:26Z</time>
      </trkpt>
      <trkpt lat="44.33311" lon="2.63886">
        <ele>662.9663086</ele>
        <time>2014-08-05T04:42:31Z</time>
      </trkpt>
      <trkpt lat="44.33307" lon="2.639">
        <ele>662.4855957</ele>
        <time>2014-08-05T04:42:36Z</time>
      </trkpt>
      <trkpt lat="44.33303" lon="2.63912">
        <ele>663.9274902</ele>
        <time>2014-08-05T04:42:40Z</time>
      </trkpt>
      <trkpt lat="44.33299" lon="2.63935">
        <ele>664.888916</ele>
        <time>2014-08-05T04:42:47Z</time>
      </trkpt>
      <trkpt lat="44.33298" lon="2.63947">
        <ele>663.9274902</ele>
        <time>2014-08-05T04:42:51Z</time>
      </trkpt>
      <trkpt lat="44.33296" lon="2.63966">
        <ele>664.4082031</ele>
        <time>2014-08-05T04:42:57Z</time>
      </trkpt>
      <trkpt lat="44.33293" lon="2.6398">
        <ele>664.888916</ele>
        <time>2014-08-05T04:43:02Z</time>
      </trkpt>
      <trkpt lat="44.33291" lon="2.63991">
        <ele>665.8503418</ele>
        <time>2014-08-05T04:43:06Z</time>
      </trkpt>
      <trkpt lat="44.33289" lon="2.64008">
        <ele>665.3696289</ele>
        <time>2014-08-05T04:43:11Z</time>
      </trkpt>
      <trkpt lat="44.33287" lon="2.64017">
        <ele>665.3696289</ele>
        <time>2014-08-05T04:43:14Z</time>
      </trkpt>
      <trkpt lat="44.33284" lon="2.6403">
        <ele>666.3308105</ele>
        <time>2014-08-05T04:43:18Z</time>
      </trkpt>
      <trkpt lat="44.33284" lon="2.64033">
        <ele>666.3308105</ele>
        <time>2014-08-05T04:43:19Z</time>
      </trkpt>
      <trkpt lat="44.33281" lon="2.64051">
        <ele>667.7727051</ele>
        <time>2014-08-05T04:43:25Z</time>
      </trkpt>
      <trkpt lat="44.3328" lon="2.64054">
        <ele>667.2922363</ele>
        <time>2014-08-05T04:43:26Z</time>
      </trkpt>
      <trkpt lat="44.33279" lon="2.64068">
        <ele>670.6569824</ele>
        <time>2014-08-05T04:43:31Z</time>
      </trkpt>
      <trkpt lat="44.33277" lon="2.64078">
        <ele>671.1376953</ele>
        <time>2014-08-05T04:43:34Z</time>
      </trkpt>
      <trkpt lat="44.33273" lon="2.64097">
        <ele>672.5795898</ele>
        <time>2014-08-05T04:43:40Z</time>
      </trkpt>
      <trkpt lat="44.33268" lon="2.64114">
        <ele>673.5410156</ele>
        <time>2014-08-05T04:43:45Z</time>
      </trkpt>
      <trkpt lat="44.33265" lon="2.64127">
        <ele>674.0214844</ele>
        <time>2014-08-05T04:43:49Z</time>
      </trkpt>
      <trkpt lat="44.33263" lon="2.64138">
        <ele>674.9829102</ele>
        <time>2014-08-05T04:43:53Z</time>
      </trkpt>
      <trkpt lat="44.33259" lon="2.64159">
        <ele>676.9055176</ele>
        <time>2014-08-05T04:43:59Z</time>
      </trkpt>
      <trkpt lat="44.33255" lon="2.64175">
        <ele>677.3862305</ele>
        <time>2014-08-05T04:44:04Z</time>
      </trkpt>
      <trkpt lat="44.33251" lon="2.64189">
        <ele>678.3474121</ele>
        <time>2014-08-05T04:44:09Z</time>
      </trkpt>
      <trkpt lat="44.33246" lon="2.64203">
        <ele>679.3085938</ele>
        <time>2014-08-05T04:44:14Z</time>
      </trkpt>
      <trkpt lat="44.33241" lon="2.64213">
        <ele>678.828125</ele>
        <time>2014-08-05T04:44:19Z</time>
      </trkpt>
      <trkpt lat="44.33235" lon="2.64227">
        <ele>680.7507324</ele>
        <time>2014-08-05T04:44:24Z</time>
      </trkpt>
      <trkpt lat="44.3323" lon="2.64242">
        <ele>682.6733398</ele>
        <time>2014-08-05T04:44:29Z</time>
      </trkpt>
      <trkpt lat="44.33224" lon="2.64257">
        <ele>683.1538086</ele>
        <time>2014-08-05T04:44:34Z</time>
      </trkpt>
      <trkpt lat="44.33218" lon="2.6427">
        <ele>683.1538086</ele>
        <time>2014-08-05T04:44:39Z</time>
      </trkpt>
      <trkpt lat="44.33216" lon="2.6428">
        <ele>683.1538086</ele>
        <time>2014-08-05T04:44:42Z</time>
      </trkpt>
      <trkpt lat="44.33211" lon="2.64292">
        <ele>682.192627</ele>
        <time>2014-08-05T04:44:46Z</time>
      </trkpt>
      <trkpt lat="44.33208" lon="2.64303">
        <ele>681.2314453</ele>
        <time>2014-08-05T04:44:50Z</time>
      </trkpt>
      <trkpt lat="44.33203" lon="2.64317">
        <ele>681.7119141</ele>
        <time>2014-08-05T04:44:55Z</time>
      </trkpt>
      <trkpt lat="44.33196" lon="2.64333">
        <ele>682.6733398</ele>
        <time>2014-08-05T04:45:00Z</time>
      </trkpt>
      <trkpt lat="44.3319" lon="2.64349">
        <ele>683.6345215</ele>
        <time>2014-08-05T04:45:05Z</time>
      </trkpt>
      <trkpt lat="44.33183" lon="2.64367">
        <ele>684.1154785</ele>
        <time>2014-08-05T04:45:11Z</time>
      </trkpt>
      <trkpt lat="44.33177" lon="2.64387">
        <ele>683.6345215</ele>
        <time>2014-08-05T04:45:17Z</time>
      </trkpt>
      <trkpt lat="44.33174" lon="2.64396">
        <ele>684.5961914</ele>
        <time>2014-08-05T04:45:21Z</time>
      </trkpt>
      <trkpt lat="44.33171" lon="2.64408">
        <ele>684.5961914</ele>
        <time>2014-08-05T04:45:25Z</time>
      </trkpt>
      <trkpt lat="44.33168" lon="2.64421">
        <ele>686.0380859</ele>
        <time>2014-08-05T04:45:29Z</time>
      </trkpt>
      <trkpt lat="44.33165" lon="2.64433">
        <ele>686.9992676</ele>
        <time>2014-08-05T04:45:33Z</time>
      </trkpt>
      <trkpt lat="44.33162" lon="2.64446">
        <ele>687.9606934</ele>
        <time>2014-08-05T04:45:37Z</time>
      </trkpt>
      <trkpt lat="44.33156" lon="2.64464">
        <ele>686.9992676</ele>
        <time>2014-08-05T04:45:42Z</time>
      </trkpt>
      <trkpt lat="44.33152" lon="2.64477">
        <ele>686.5187988</ele>
        <time>2014-08-05T04:45:46Z</time>
      </trkpt>
      <trkpt lat="44.33145" lon="2.64493">
        <ele>686.5187988</ele>
        <time>2014-08-05T04:45:51Z</time>
      </trkpt>
      <trkpt lat="44.33143" lon="2.64495">
        <ele>685.557373</ele>
        <time>2014-08-05T04:45:52Z</time>
      </trkpt>
      <trkpt lat="44.33138" lon="2.64507">
        <ele>683.6345215</ele>
        <time>2014-08-05T04:45:56Z</time>
      </trkpt>
      <trkpt lat="44.33131" lon="2.64527">
        <ele>683.1538086</ele>
        <time>2014-08-05T04:46:03Z</time>
      </trkpt>
      <trkpt lat="44.33123" lon="2.64551">
        <ele>682.6733398</ele>
        <time>2014-08-05T04:46:10Z</time>
      </trkpt>
      <trkpt lat="44.33119" lon="2.64561">
        <ele>683.1538086</ele>
        <time>2014-08-05T04:46:13Z</time>
      </trkpt>
      <trkpt lat="44.33111" lon="2.64577">
        <ele>682.6733398</ele>
        <time>2014-08-05T04:46:19Z</time>
      </trkpt>
      <trkpt lat="44.33107" lon="2.64594">
        <ele>682.6733398</ele>
        <time>2014-08-05T04:46:24Z</time>
      </trkpt>
      <trkpt lat="44.33107" lon="2.6461">
        <ele>682.6733398</ele>
        <time>2014-08-05T04:46:28Z</time>
      </trkpt>
      <trkpt lat="44.33107" lon="2.64619">
        <ele>682.192627</ele>
        <time>2014-08-05T04:46:31Z</time>
      </trkpt>
      <trkpt lat="44.33108" lon="2.6463">
        <ele>680.7507324</ele>
        <time>2014-08-05T04:46:34Z</time>
      </trkpt>
      <trkpt lat="44.33103" lon="2.6465">
        <ele>679.3085938</ele>
        <time>2014-08-05T04:46:40Z</time>
      </trkpt>
      <trkpt lat="44.33099" lon="2.64665">
        <ele>677.3862305</ele>
        <time>2014-08-05T04:46:44Z</time>
      </trkpt>
      <trkpt lat="44.33094" lon="2.64679">
        <ele>676.4248047</ele>
        <time>2014-08-05T04:46:48Z</time>
      </trkpt>
      <trkpt lat="44.33092" lon="2.64694">
        <ele>676.4248047</ele>
        <time>2014-08-05T04:46:52Z</time>
      </trkpt>
      <trkpt lat="44.33087" lon="2.64709">
        <ele>676.4248047</ele>
        <time>2014-08-05T04:46:56Z</time>
      </trkpt>
      <trkpt lat="44.33081" lon="2.64731">
        <ele>676.9055176</ele>
        <time>2014-08-05T04:47:02Z</time>
      </trkpt>
      <trkpt lat="44.33077" lon="2.64748">
        <ele>677.8666992</ele>
        <time>2014-08-05T04:47:06Z</time>
      </trkpt>
      <trkpt lat="44.33074" lon="2.64761">
        <ele>678.3474121</ele>
        <time>2014-08-05T04:47:10Z</time>
      </trkpt>
      <trkpt lat="44.33074" lon="2.64768">
        <ele>678.3474121</ele>
        <time>2014-08-05T04:47:12Z</time>
      </trkpt>
      <trkpt lat="44.33075" lon="2.6479">
        <ele>676.4248047</ele>
        <time>2014-08-05T04:47:18Z</time>
      </trkpt>
      <trkpt lat="44.33072" lon="2.64813">
        <ele>673.0603027</ele>
        <time>2014-08-05T04:47:24Z</time>
      </trkpt>
      <trkpt lat="44.33067" lon="2.64832">
        <ele>671.6181641</ele>
        <time>2014-08-05T04:47:29Z</time>
      </trkpt>
      <trkpt lat="44.33065" lon="2.64842">
        <ele>670.1762695</ele>
        <time>2014-08-05T04:47:32Z</time>
      </trkpt>
      <trkpt lat="44.33057" lon="2.64847">
        <ele>669.2150879</ele>
        <time>2014-08-05T04:47:36Z</time>
      </trkpt>
      <trkpt lat="44.33054" lon="2.64848">
        <ele>668.734375</ele>
        <time>2014-08-05T04:47:37Z</time>
      </trkpt>
      <trkpt lat="44.33043" lon="2.64847">
        <ele>666.8115234</ele>
        <time>2014-08-05T04:47:41Z</time>
      </trkpt>
      <trkpt lat="44.33031" lon="2.64842">
        <ele>666.3308105</ele>
        <time>2014-08-05T04:47:46Z</time>
      </trkpt>
      <trkpt lat="44.33026" lon="2.64839">
        <ele>666.3308105</ele>
        <time>2014-08-05T04:47:48Z</time>
      </trkpt>
      <trkpt lat="44.33016" lon="2.64839">
        <ele>666.3308105</ele>
        <time>2014-08-05T04:47:52Z</time>
      </trkpt>
      <trkpt lat="44.33006" lon="2.64836">
        <ele>666.8115234</ele>
        <time>2014-08-05T04:47:56Z</time>
      </trkpt>
      <trkpt lat="44.32997" lon="2.64832">
        <ele>666.8115234</ele>
        <time>2014-08-05T04:48:00Z</time>
      </trkpt>
      <trkpt lat="44.32986" lon="2.64829">
        <ele>666.8115234</ele>
        <time>2014-08-05T04:48:04Z</time>
      </trkpt>
      <trkpt lat="44.32981" lon="2.64827">
        <ele>667.2922363</ele>
        <time>2014-08-05T04:48:06Z</time>
      </trkpt>
      <trkpt lat="44.32971" lon="2.64823">
        <ele>668.2536621</ele>
        <time>2014-08-05T04:48:10Z</time>
      </trkpt>
      <trkpt lat="44.32968" lon="2.64822">
        <ele>668.734375</ele>
        <time>2014-08-05T04:48:11Z</time>
      </trkpt>
      <trkpt lat="44.32963" lon="2.64819">
        <ele>669.2150879</ele>
        <time>2014-08-05T04:48:13Z</time>
      </trkpt>
      <trkpt lat="44.32955" lon="2.64818">
        <ele>668.734375</ele>
        <time>2014-08-05T04:48:16Z</time>
      </trkpt>
      <trkpt lat="44.32942" lon="2.64815">
        <ele>670.1762695</ele>
        <time>2014-08-05T04:48:21Z</time>
      </trkpt>
      <trkpt lat="44.32932" lon="2.64814">
        <ele>670.6569824</ele>
        <time>2014-08-05T04:48:25Z</time>
      </trkpt>
      <trkpt lat="44.32923" lon="2.64813">
        <ele>670.6569824</ele>
        <time>2014-08-05T04:48:28Z</time>
      </trkpt>
      <trkpt lat="44.32915" lon="2.64813">
        <ele>670.1762695</ele>
        <time>2014-08-05T04:48:31Z</time>
      </trkpt>
      <trkpt lat="44.32911" lon="2.64811">
        <ele>668.734375</ele>
        <time>2014-08-05T04:48:33Z</time>
      </trkpt>
      <trkpt lat="44.32906" lon="2.6481">
        <ele>667.7727051</ele>
        <time>2014-08-05T04:48:35Z</time>
      </trkpt>
      <trkpt lat="44.329" lon="2.64807">
        <ele>667.2922363</ele>
        <time>2014-08-05T04:48:38Z</time>
      </trkpt>
      <trkpt lat="44.32893" lon="2.64805">
        <ele>667.7727051</ele>
        <time>2014-08-05T04:48:41Z</time>
      </trkpt>
      <trkpt lat="44.32881" lon="2.64805">
        <ele>668.2536621</ele>
        <time>2014-08-05T04:48:45Z</time>
      </trkpt>
      <trkpt lat="44.32871" lon="2.64803">
        <ele>667.2922363</ele>
        <time>2014-08-05T04:48:49Z</time>
      </trkpt>
      <trkpt lat="44.32864" lon="2.64802">
        <ele>667.2922363</ele>
        <time>2014-08-05T04:48:52Z</time>
      </trkpt>
      <trkpt lat="44.32853" lon="2.64803">
        <ele>667.2922363</ele>
        <time>2014-08-05T04:48:56Z</time>
      </trkpt>
      <trkpt lat="44.3284" lon="2.64801">
        <ele>666.8115234</ele>
        <time>2014-08-05T04:49:01Z</time>
      </trkpt>
      <trkpt lat="44.3283" lon="2.648">
        <ele>666.3308105</ele>
        <time>2014-08-05T04:49:05Z</time>
      </trkpt>
      <trkpt lat="44.32819" lon="2.64799">
        <ele>665.8503418</ele>
        <time>2014-08-05T04:49:09Z</time>
      </trkpt>
      <trkpt lat="44.32817" lon="2.64798">
        <ele>665.8503418</ele>
        <time>2014-08-05T04:49:10Z</time>
      </trkpt>
      <trkpt lat="44.328" lon="2.64792">
        <ele>662.4855957</ele>
        <time>2014-08-05T04:49:16Z</time>
      </trkpt>
      <trkpt lat="44.32794" lon="2.6479">
        <ele>661.0437012</ele>
        <time>2014-08-05T04:49:18Z</time>
      </trkpt>
      <trkpt lat="44.32781" lon="2.64789">
        <ele>658.6403809</ele>
        <time>2014-08-05T04:49:23Z</time>
      </trkpt>
      <trkpt lat="44.32772" lon="2.64788">
        <ele>656.7177734</ele>
        <time>2014-08-05T04:49:26Z</time>
      </trkpt>
      <trkpt lat="44.32757" lon="2.6479">
        <ele>652.3918457</ele>
        <time>2014-08-05T04:49:31Z</time>
      </trkpt>
      <trkpt lat="44.32754" lon="2.64791">
        <ele>651.4304199</ele>
        <time>2014-08-05T04:49:32Z</time>
      </trkpt>
      <trkpt lat="44.32742" lon="2.64787">
        <ele>646.6240234</ele>
        <time>2014-08-05T04:49:37Z</time>
      </trkpt>
      <trkpt lat="44.32731" lon="2.64785">
        <ele>644.7011719</ele>
        <time>2014-08-05T04:49:41Z</time>
      </trkpt>
      <trkpt lat="44.32721" lon="2.64787">
        <ele>642.2980957</ele>
        <time>2014-08-05T04:49:45Z</time>
      </trkpt>
      <trkpt lat="44.3271" lon="2.64782">
        <ele>641.3366699</ele>
        <time>2014-08-05T04:49:49Z</time>
      </trkpt>
      <trkpt lat="44.32694" lon="2.64781">
        <ele>639.8947754</ele>
        <time>2014-08-05T04:49:55Z</time>
      </trkpt>
      <trkpt lat="44.32683" lon="2.6478">
        <ele>638.4528809</ele>
        <time>2014-08-05T04:50:00Z</time>
      </trkpt>
      <trkpt lat="44.32672" lon="2.64783">
        <ele>637.4914551</ele>
        <time>2014-08-05T04:50:05Z</time>
      </trkpt>
      <trkpt lat="44.32662" lon="2.6478">
        <ele>636.5302734</ele>
        <time>2014-08-05T04:50:10Z</time>
      </trkpt>
      <trkpt lat="44.32648" lon="2.64781">
        <ele>635.5686035</ele>
        <time>2014-08-05T04:50:16Z</time>
      </trkpt>
      <trkpt lat="44.32642" lon="2.64781">
        <ele>634.126709</ele>
        <time>2014-08-05T04:50:19Z</time>
      </trkpt>
      <trkpt lat="44.32633" lon="2.64786">
        <ele>634.126709</ele>
        <time>2014-08-05T04:50:24Z</time>
      </trkpt>
      <trkpt lat="44.32624" lon="2.64792">
        <ele>635.0881348</ele>
        <time>2014-08-05T04:50:28Z</time>
      </trkpt>
      <trkpt lat="44.3261" lon="2.64799">
        <ele>637.4914551</ele>
        <time>2014-08-05T04:50:34Z</time>
      </trkpt>
      <trkpt lat="44.32603" lon="2.64801">
        <ele>637.972168</ele>
        <time>2014-08-05T04:50:36Z</time>
      </trkpt>
      <trkpt lat="44.32589" lon="2.64796">
        <ele>642.7788086</ele>
        <time>2014-08-05T04:50:41Z</time>
      </trkpt>
      <trkpt lat="44.32581" lon="2.64799">
        <ele>645.1818848</ele>
        <time>2014-08-05T04:50:46Z</time>
      </trkpt>
      <trkpt lat="44.32579" lon="2.648">
        <ele>645.6625977</ele>
        <time>2014-08-05T04:50:47Z</time>
      </trkpt>
      <trkpt lat="44.32573" lon="2.64804">
        <ele>646.6240234</ele>
        <time>2014-08-05T04:50:49Z</time>
      </trkpt>
      <trkpt lat="44.3256" lon="2.64802">
        <ele>649.0270996</ele>
        <time>2014-08-05T04:50:55Z</time>
      </trkpt>
      <trkpt lat="44.32556" lon="2.64801">
        <ele>649.0270996</ele>
        <time>2014-08-05T04:50:57Z</time>
      </trkpt>
      <trkpt lat="44.32544" lon="2.648">
        <ele>649.9885254</ele>
        <time>2014-08-05T04:51:03Z</time>
      </trkpt>
      <trkpt lat="44.32537" lon="2.64798">
        <ele>650.949707</ele>
        <time>2014-08-05T04:51:07Z</time>
      </trkpt>
      <trkpt lat="44.32528" lon="2.64798">
        <ele>651.9111328</ele>
        <time>2014-08-05T04:51:11Z</time>
      </trkpt>
      <trkpt lat="44.32516" lon="2.64797">
        <ele>653.3532715</ele>
        <time>2014-08-05T04:51:17Z</time>
      </trkpt>
      <trkpt lat="44.32505" lon="2.64795">
        <ele>653.8339844</ele>
        <time>2014-08-05T04:51:23Z</time>
      </trkpt>
      <trkpt lat="44.32495" lon="2.64793">
        <ele>655.7565918</ele>
        <time>2014-08-05T04:51:28Z</time>
      </trkpt>
      <trkpt lat="44.32485" lon="2.6479">
        <ele>655.7565918</ele>
        <time>2014-08-05T04:51:33Z</time>
      </trkpt>
      <trkpt lat="44.32473" lon="2.64783">
        <ele>659.1210938</ele>
        <time>2014-08-05T04:51:39Z</time>
      </trkpt>
      <trkpt lat="44.3246" lon="2.64777">
        <ele>661.5244141</ele>
        <time>2014-08-05T04:51:45Z</time>
      </trkpt>
      <trkpt lat="44.32451" lon="2.6477">
        <ele>663.4470215</ele>
        <time>2014-08-05T04:51:50Z</time>
      </trkpt>
      <trkpt lat="44.3244" lon="2.64768">
        <ele>663.9274902</ele>
        <time>2014-08-05T04:51:55Z</time>
      </trkpt>
      <trkpt lat="44.32429" lon="2.64762">
        <ele>663.9274902</ele>
        <time>2014-08-05T04:52:01Z</time>
      </trkpt>
      <trkpt lat="44.3242" lon="2.64755">
        <ele>664.888916</ele>
        <time>2014-08-05T04:52:06Z</time>
      </trkpt>
      <trkpt lat="44.32409" lon="2.6475">
        <ele>664.888916</ele>
        <time>2014-08-05T04:52:11Z</time>
      </trkpt>
      <trkpt lat="44.32395" lon="2.64743">
        <ele>664.888916</ele>
        <time>2014-08-05T04:52:18Z</time>
      </trkpt>
      <trkpt lat="44.32385" lon="2.64738">
        <ele>664.4082031</ele>
        <time>2014-08-05T04:52:23Z</time>
      </trkpt>
      <trkpt lat="44.32383" lon="2.64739">
        <ele>664.888916</ele>
        <time>2014-08-05T04:52:26Z</time>
      </trkpt>
      <trkpt lat="44.32372" lon="2.6474">
        <ele>665.8503418</ele>
        <time>2014-08-05T04:52:31Z</time>
      </trkpt>
      <trkpt lat="44.32359" lon="2.64741">
        <ele>666.8115234</ele>
        <time>2014-08-05T04:52:37Z</time>
      </trkpt>
      <trkpt lat="44.32347" lon="2.64748">
        <ele>668.734375</ele>
        <time>2014-08-05T04:52:43Z</time>
      </trkpt>
      <trkpt lat="44.32345" lon="2.64749">
        <ele>668.734375</ele>
        <time>2014-08-05T04:52:44Z</time>
      </trkpt>
      <trkpt lat="44.32334" lon="2.64762">
        <ele>669.6958008</ele>
        <time>2014-08-05T04:52:50Z</time>
      </trkpt>
      <trkpt lat="44.32329" lon="2.64772">
        <ele>670.6569824</ele>
        <time>2014-08-05T04:52:54Z</time>
      </trkpt>
      <trkpt lat="44.32325" lon="2.64782">
        <ele>671.1376953</ele>
        <time>2014-08-05T04:52:57Z</time>
      </trkpt>
      <trkpt lat="44.32323" lon="2.64785">
        <ele>671.1376953</ele>
        <time>2014-08-05T04:52:58Z</time>
      </trkpt>
      <trkpt lat="44.32318" lon="2.64799">
        <ele>672.5795898</ele>
        <time>2014-08-05T04:53:03Z</time>
      </trkpt>
      <trkpt lat="44.32312" lon="2.64812">
        <ele>673.0603027</ele>
        <time>2014-08-05T04:53:08Z</time>
      </trkpt>
      <trkpt lat="44.32305" lon="2.64821">
        <ele>673.5410156</ele>
        <time>2014-08-05T04:53:12Z</time>
      </trkpt>
      <trkpt lat="44.32295" lon="2.64817">
        <ele>674.5021973</ele>
        <time>2014-08-05T04:53:17Z</time>
      </trkpt>
      <trkpt lat="44.32289" lon="2.64805">
        <ele>676.9055176</ele>
        <time>2014-08-05T04:53:22Z</time>
      </trkpt>
      <trkpt lat="44.32283" lon="2.64789">
        <ele>679.3085938</ele>
        <time>2014-08-05T04:53:27Z</time>
      </trkpt>
      <trkpt lat="44.32275" lon="2.6477">
        <ele>681.2314453</ele>
        <time>2014-08-05T04:53:33Z</time>
      </trkpt>
      <trkpt lat="44.3227" lon="2.64752">
        <ele>682.6733398</ele>
        <time>2014-08-05T04:53:38Z</time>
      </trkpt>
      <trkpt lat="44.32268" lon="2.64739">
        <ele>683.6345215</ele>
        <time>2014-08-05T04:53:42Z</time>
      </trkpt>
      <trkpt lat="44.32263" lon="2.64719">
        <ele>685.0769043</ele>
        <time>2014-08-05T04:53:48Z</time>
      </trkpt>
      <trkpt lat="44.32257" lon="2.64705">
        <ele>685.0769043</ele>
        <time>2014-08-05T04:53:53Z</time>
      </trkpt>
      <trkpt lat="44.32249" lon="2.64691">
        <ele>683.6345215</ele>
        <time>2014-08-05T04:53:59Z</time>
      </trkpt>
      <trkpt lat="44.32238" lon="2.64679">
        <ele>682.6733398</ele>
        <time>2014-08-05T04:54:05Z</time>
      </trkpt>
      <trkpt lat="44.32225" lon="2.64667">
        <ele>682.6733398</ele>
        <time>2014-08-05T04:54:12Z</time>
      </trkpt>
      <trkpt lat="44.32213" lon="2.64658">
        <ele>683.1538086</ele>
        <time>2014-08-05T04:54:18Z</time>
      </trkpt>
      <trkpt lat="44.32212" lon="2.64657">
        <ele>683.1538086</ele>
        <time>2014-08-05T04:54:19Z</time>
      </trkpt>
      <trkpt lat="44.322" lon="2.64654">
        <ele>684.5961914</ele>
        <time>2014-08-05T04:54:25Z</time>
      </trkpt>
      <trkpt lat="44.32196" lon="2.64653">
        <ele>684.5961914</ele>
        <time>2014-08-05T04:54:27Z</time>
      </trkpt>
      <trkpt lat="44.32179" lon="2.64649">
        <ele>686.0380859</ele>
        <time>2014-08-05T04:54:35Z</time>
      </trkpt>
      <trkpt lat="44.32167" lon="2.64648">
        <ele>686.9992676</ele>
        <time>2014-08-05T04:54:41Z</time>
      </trkpt>
      <trkpt lat="44.32156" lon="2.64645">
        <ele>686.9992676</ele>
        <time>2014-08-05T04:54:46Z</time>
      </trkpt>
      <trkpt lat="44.32148" lon="2.64639">
        <ele>686.9992676</ele>
        <time>2014-08-05T04:54:50Z</time>
      </trkpt>
      <trkpt lat="44.32145" lon="2.64623">
        <ele>687.4799805</ele>
        <time>2014-08-05T04:54:55Z</time>
      </trkpt>
      <trkpt lat="44.32143" lon="2.64603">
        <ele>686.9992676</ele>
        <time>2014-08-05T04:55:00Z</time>
      </trkpt>
      <trkpt lat="44.32148" lon="2.64592">
        <ele>684.5961914</ele>
        <time>2014-08-05T04:55:04Z</time>
      </trkpt>
      <trkpt lat="44.32145" lon="2.64585">
        <ele>682.192627</ele>
        <time>2014-08-05T04:55:08Z</time>
      </trkpt>
      <trkpt lat="44.32143" lon="2.6457">
        <ele>681.7119141</ele>
        <time>2014-08-05T04:55:14Z</time>
      </trkpt>
      <trkpt lat="44.32145" lon="2.64557">
        <ele>682.6733398</ele>
        <time>2014-08-05T04:55:18Z</time>
      </trkpt>
      <trkpt lat="44.32148" lon="2.64542">
        <ele>684.5961914</ele>
        <time>2014-08-05T04:55:23Z</time>
      </trkpt>
      <trkpt lat="44.3215" lon="2.64526">
        <ele>686.0380859</ele>
        <time>2014-08-05T04:55:28Z</time>
      </trkpt>
      <trkpt lat="44.32149" lon="2.64506">
        <ele>687.9606934</ele>
        <time>2014-08-05T04:55:34Z</time>
      </trkpt>
      <trkpt lat="44.32147" lon="2.64491">
        <ele>688.4414063</ele>
        <time>2014-08-05T04:55:38Z</time>
      </trkpt>
      <trkpt lat="44.32145" lon="2.64477">
        <ele>688.4414063</ele>
        <time>2014-08-05T04:55:43Z</time>
      </trkpt>
      <trkpt lat="44.32145" lon="2.64475">
        <ele>686.9992676</ele>
        <time>2014-08-05T04:55:47Z</time>
      </trkpt>
      <trkpt lat="44.32142" lon="2.64473">
        <ele>686.0380859</ele>
        <time>2014-08-05T04:55:54Z</time>
      </trkpt>
      <trkpt lat="44.32141" lon="2.64471">
        <ele>685.0769043</ele>
        <time>2014-08-05T04:56:00Z</time>
      </trkpt>
      <trkpt lat="44.32141" lon="2.64471">
        <ele>683.6345215</ele>
        <time>2014-08-05T04:56:08Z</time>
      </trkpt>
      <trkpt lat="44.32141" lon="2.64472">
        <ele>684.1154785</ele>
        <time>2014-08-05T04:56:15Z</time>
      </trkpt>
      <trkpt lat="44.3214" lon="2.64471">
        <ele>684.1154785</ele>
        <time>2014-08-05T04:56:20Z</time>
      </trkpt>
      <trkpt lat="44.3214" lon="2.64471">
        <ele>683.6345215</ele>
        <time>2014-08-05T04:56:24Z</time>
      </trkpt>
      <trkpt lat="44.32141" lon="2.6447">
        <ele>682.192627</ele>
        <time>2014-08-05T04:56:35Z</time>
      </trkpt>
      <trkpt lat="44.32141" lon="2.6447">
        <ele>681.7119141</ele>
        <time>2014-08-05T04:56:45Z</time>
      </trkpt>
      <trkpt lat="44.32141" lon="2.64469">
        <ele>680.7507324</ele>
        <time>2014-08-05T04:56:51Z</time>
      </trkpt>
      <trkpt lat="44.32143" lon="2.64467">
        <ele>681.7119141</ele>
        <time>2014-08-05T04:56:57Z</time>
      </trkpt>
      <trkpt lat="44.32145" lon="2.64465">
        <ele>681.7119141</ele>
        <time>2014-08-05T04:57:00Z</time>
      </trkpt>
      <trkpt lat="44.32144" lon="2.64458">
        <ele>682.6733398</ele>
        <time>2014-08-05T04:57:04Z</time>
      </trkpt>
      <trkpt lat="44.32143" lon="2.64448">
        <ele>683.1538086</ele>
        <time>2014-08-05T04:57:10Z</time>
      </trkpt>
      <trkpt lat="44.32143" lon="2.64445">
        <ele>683.6345215</ele>
        <time>2014-08-05T04:57:12Z</time>
      </trkpt>
      <trkpt lat="44.32143" lon="2.64439">
        <ele>683.6345215</ele>
        <time>2014-08-05T04:57:17Z</time>
      </trkpt>
      <trkpt lat="44.32143" lon="2.6443">
        <ele>684.1154785</ele>
        <time>2014-08-05T04:57:24Z</time>
      </trkpt>
      <trkpt lat="44.32144" lon="2.6443">
        <ele>684.5961914</ele>
        <time>2014-08-05T04:57:32Z</time>
      </trkpt>
      <trkpt lat="44.32143" lon="2.64429">
        <ele>684.5961914</ele>
        <time>2014-08-05T04:57:46Z</time>
      </trkpt>
      <trkpt lat="44.32144" lon="2.64421">
        <ele>685.0769043</ele>
        <time>2014-08-05T04:57:56Z</time>
      </trkpt>
      <trkpt lat="44.32144" lon="2.64399">
        <ele>685.557373</ele>
        <time>2014-08-05T04:58:03Z</time>
      </trkpt>
      <trkpt lat="44.32144" lon="2.64379">
        <ele>684.5961914</ele>
        <time>2014-08-05T04:58:09Z</time>
      </trkpt>
      <trkpt lat="44.32142" lon="2.64366">
        <ele>684.5961914</ele>
        <time>2014-08-05T04:58:13Z</time>
      </trkpt>
      <trkpt lat="44.32142" lon="2.64348">
        <ele>685.557373</ele>
        <time>2014-08-05T04:58:18Z</time>
      </trkpt>
      <trkpt lat="44.32141" lon="2.64333">
        <ele>687.4799805</ele>
        <time>2014-08-05T04:58:23Z</time>
      </trkpt>
      <trkpt lat="44.3214" lon="2.64316">
        <ele>687.9606934</ele>
        <time>2014-08-05T04:58:28Z</time>
      </trkpt>
      <trkpt lat="44.32139" lon="2.64298">
        <ele>687.9606934</ele>
        <time>2014-08-05T04:58:33Z</time>
      </trkpt>
      <trkpt lat="44.32138" lon="2.64282">
        <ele>689.4025879</ele>
        <time>2014-08-05T04:58:38Z</time>
      </trkpt>
      <trkpt lat="44.32137" lon="2.6427">
        <ele>689.8833008</ele>
        <time>2014-08-05T04:58:42Z</time>
      </trkpt>
      <trkpt lat="44.32136" lon="2.64255">
        <ele>689.4025879</ele>
        <time>2014-08-05T04:58:46Z</time>
      </trkpt>
      <trkpt lat="44.32135" lon="2.64232">
        <ele>688.4414063</ele>
        <time>2014-08-05T04:58:53Z</time>
      </trkpt>
      <trkpt lat="44.32134" lon="2.64209">
        <ele>689.4025879</ele>
        <time>2014-08-05T04:58:59Z</time>
      </trkpt>
      <trkpt lat="44.32131" lon="2.6418">
        <ele>690.8444824</ele>
        <time>2014-08-05T04:59:05Z</time>
      </trkpt>
      <trkpt lat="44.3213" lon="2.64162">
        <ele>691.3251953</ele>
        <time>2014-08-05T04:59:09Z</time>
      </trkpt>
      <trkpt lat="44.32128" lon="2.64141">
        <ele>692.2866211</ele>
        <time>2014-08-05T04:59:14Z</time>
      </trkpt>
      <trkpt lat="44.32125" lon="2.64115">
        <ele>692.767334</ele>
        <time>2014-08-05T04:59:20Z</time>
      </trkpt>
      <trkpt lat="44.32123" lon="2.64098">
        <ele>693.2478027</ele>
        <time>2014-08-05T04:59:24Z</time>
      </trkpt>
      <trkpt lat="44.32121" lon="2.64076">
        <ele>693.2478027</ele>
        <time>2014-08-05T04:59:29Z</time>
      </trkpt>
      <trkpt lat="44.3212" lon="2.64059">
        <ele>692.767334</ele>
        <time>2014-08-05T04:59:33Z</time>
      </trkpt>
      <trkpt lat="44.3212" lon="2.64041">
        <ele>692.2866211</ele>
        <time>2014-08-05T04:59:37Z</time>
      </trkpt>
      <trkpt lat="44.32121" lon="2.64017">
        <ele>691.8059082</ele>
        <time>2014-08-05T04:59:42Z</time>
      </trkpt>
      <trkpt lat="44.32122" lon="2.63992">
        <ele>691.3251953</ele>
        <time>2014-08-05T04:59:47Z</time>
      </trkpt>
      <trkpt lat="44.32123" lon="2.63967">
        <ele>691.3251953</ele>
        <time>2014-08-05T04:59:52Z</time>
      </trkpt>
      <trkpt lat="44.32124" lon="2.63943">
        <ele>691.8059082</ele>
        <time>2014-08-05T04:59:57Z</time>
      </trkpt>
      <trkpt lat="44.32127" lon="2.63918">
        <ele>692.767334</ele>
        <time>2014-08-05T05:00:03Z</time>
      </trkpt>
      <trkpt lat="44.32128" lon="2.63901">
        <ele>692.2866211</ele>
        <time>2014-08-05T05:00:07Z</time>
      </trkpt>
      <trkpt lat="44.32129" lon="2.63879">
        <ele>691.8059082</ele>
        <time>2014-08-05T05:00:12Z</time>
      </trkpt>
      <trkpt lat="44.3213" lon="2.6386">
        <ele>691.3251953</ele>
        <time>2014-08-05T05:00:16Z</time>
      </trkpt>
      <trkpt lat="44.32131" lon="2.63835">
        <ele>692.2866211</ele>
        <time>2014-08-05T05:00:22Z</time>
      </trkpt>
      <trkpt lat="44.32133" lon="2.6382">
        <ele>693.2478027</ele>
        <time>2014-08-05T05:00:26Z</time>
      </trkpt>
      <trkpt lat="44.32134" lon="2.63804">
        <ele>693.7285156</ele>
        <time>2014-08-05T05:00:30Z</time>
      </trkpt>
      <trkpt lat="44.32134" lon="2.63784">
        <ele>692.767334</ele>
        <time>2014-08-05T05:00:34Z</time>
      </trkpt>
      <trkpt lat="44.32137" lon="2.63763">
        <ele>692.2866211</ele>
        <time>2014-08-05T05:00:39Z</time>
      </trkpt>
      <trkpt lat="44.3214" lon="2.63742">
        <ele>692.2866211</ele>
        <time>2014-08-05T05:00:44Z</time>
      </trkpt>
      <trkpt lat="44.32146" lon="2.63725">
        <ele>691.8059082</ele>
        <time>2014-08-05T05:00:48Z</time>
      </trkpt>
      <trkpt lat="44.32153" lon="2.63712">
        <ele>691.3251953</ele>
        <time>2014-08-05T05:00:52Z</time>
      </trkpt>
      <trkpt lat="44.32165" lon="2.63694">
        <ele>689.8833008</ele>
        <time>2014-08-05T05:00:58Z</time>
      </trkpt>
      <trkpt lat="44.32173" lon="2.63676">
        <ele>689.4025879</ele>
        <time>2014-08-05T05:01:03Z</time>
      </trkpt>
      <trkpt lat="44.32181" lon="2.63661">
        <ele>688.9221191</ele>
        <time>2014-08-05T05:01:07Z</time>
      </trkpt>
      <trkpt lat="44.32191" lon="2.63644">
        <ele>687.9606934</ele>
        <time>2014-08-05T05:01:12Z</time>
      </trkpt>
      <trkpt lat="44.32198" lon="2.63632">
        <ele>686.5187988</ele>
        <time>2014-08-05T05:01:16Z</time>
      </trkpt>
      <trkpt lat="44.3221" lon="2.63612">
        <ele>684.5961914</ele>
        <time>2014-08-05T05:01:22Z</time>
      </trkpt>
      <trkpt lat="44.32218" lon="2.63598">
        <ele>683.6345215</ele>
        <time>2014-08-05T05:01:26Z</time>
      </trkpt>
      <trkpt lat="44.32225" lon="2.63582">
        <ele>682.6733398</ele>
        <time>2014-08-05T05:01:30Z</time>
      </trkpt>
      <trkpt lat="44.32236" lon="2.63566">
        <ele>682.6733398</ele>
        <time>2014-08-05T05:01:35Z</time>
      </trkpt>
      <trkpt lat="44.32249" lon="2.63543">
        <ele>682.192627</ele>
        <time>2014-08-05T05:01:41Z</time>
      </trkpt>
      <trkpt lat="44.32259" lon="2.63524">
        <ele>683.1538086</ele>
        <time>2014-08-05T05:01:46Z</time>
      </trkpt>
      <trkpt lat="44.32268" lon="2.63503">
        <ele>682.6733398</ele>
        <time>2014-08-05T05:01:51Z</time>
      </trkpt>
      <trkpt lat="44.32277" lon="2.63483">
        <ele>682.192627</ele>
        <time>2014-08-05T05:01:56Z</time>
      </trkpt>
      <trkpt lat="44.32285" lon="2.6347">
        <ele>681.7119141</ele>
        <time>2014-08-05T05:02:00Z</time>
      </trkpt>
      <trkpt lat="44.32293" lon="2.63454">
        <ele>682.192627</ele>
        <time>2014-08-05T05:02:04Z</time>
      </trkpt>
      <trkpt lat="44.32298" lon="2.63443">
        <ele>681.7119141</ele>
        <time>2014-08-05T05:02:07Z</time>
      </trkpt>
      <trkpt lat="44.32309" lon="2.63419">
        <ele>681.2314453</ele>
        <time>2014-08-05T05:02:13Z</time>
      </trkpt>
      <trkpt lat="44.32316" lon="2.63404">
        <ele>680.2700195</ele>
        <time>2014-08-05T05:02:17Z</time>
      </trkpt>
      <trkpt lat="44.32325" lon="2.63387">
        <ele>679.7893066</ele>
        <time>2014-08-05T05:02:22Z</time>
      </trkpt>
      <trkpt lat="44.32335" lon="2.6337">
        <ele>678.828125</ele>
        <time>2014-08-05T05:02:27Z</time>
      </trkpt>
      <trkpt lat="44.32342" lon="2.63356">
        <ele>677.8666992</ele>
        <time>2014-08-05T05:02:31Z</time>
      </trkpt>
      <trkpt lat="44.3235" lon="2.63337">
        <ele>676.9055176</ele>
        <time>2014-08-05T05:02:36Z</time>
      </trkpt>
      <trkpt lat="44.32361" lon="2.63319">
        <ele>675.9440918</ele>
        <time>2014-08-05T05:02:41Z</time>
      </trkpt>
      <trkpt lat="44.3237" lon="2.633">
        <ele>674.5021973</ele>
        <time>2014-08-05T05:02:46Z</time>
      </trkpt>
      <trkpt lat="44.32381" lon="2.63275">
        <ele>673.5410156</ele>
        <time>2014-08-05T05:02:52Z</time>
      </trkpt>
      <trkpt lat="44.32387" lon="2.63259">
        <ele>673.0603027</ele>
        <time>2014-08-05T05:02:56Z</time>
      </trkpt>
      <trkpt lat="44.32394" lon="2.63242">
        <ele>673.5410156</ele>
        <time>2014-08-05T05:03:00Z</time>
      </trkpt>
      <trkpt lat="44.32403" lon="2.63223">
        <ele>673.5410156</ele>
        <time>2014-08-05T05:03:05Z</time>
      </trkpt>
      <trkpt lat="44.3241" lon="2.63207">
        <ele>673.5410156</ele>
        <time>2014-08-05T05:03:09Z</time>
      </trkpt>
      <trkpt lat="44.32416" lon="2.63186">
        <ele>673.0603027</ele>
        <time>2014-08-05T05:03:14Z</time>
      </trkpt>
      <trkpt lat="44.32425" lon="2.63168">
        <ele>673.5410156</ele>
        <time>2014-08-05T05:03:19Z</time>
      </trkpt>
      <trkpt lat="44.32432" lon="2.63151">
        <ele>673.0603027</ele>
        <time>2014-08-05T05:03:23Z</time>
      </trkpt>
      <trkpt lat="44.32443" lon="2.63133">
        <ele>672.5795898</ele>
        <time>2014-08-05T05:03:28Z</time>
      </trkpt>
      <trkpt lat="44.3245" lon="2.63118">
        <ele>671.6181641</ele>
        <time>2014-08-05T05:03:32Z</time>
      </trkpt>
      <trkpt lat="44.32458" lon="2.631">
        <ele>670.6569824</ele>
        <time>2014-08-05T05:03:37Z</time>
      </trkpt>
      <trkpt lat="44.32465" lon="2.6308">
        <ele>670.6569824</ele>
        <time>2014-08-05T05:03:42Z</time>
      </trkpt>
      <trkpt lat="44.3247" lon="2.6307">
        <ele>670.6569824</ele>
        <time>2014-08-05T05:03:45Z</time>
      </trkpt>
      <trkpt lat="44.32475" lon="2.63047">
        <ele>672.098877</ele>
        <time>2014-08-05T05:03:50Z</time>
      </trkpt>
      <trkpt lat="44.32477" lon="2.63029">
        <ele>673.5410156</ele>
        <time>2014-08-05T05:03:54Z</time>
      </trkpt>
      <trkpt lat="44.3248" lon="2.63002">
        <ele>674.0214844</ele>
        <time>2014-08-05T05:04:00Z</time>
      </trkpt>
      <trkpt lat="44.32482" lon="2.62974">
        <ele>675.4633789</ele>
        <time>2014-08-05T05:04:06Z</time>
      </trkpt>
      <trkpt lat="44.32488" lon="2.62956">
        <ele>674.9829102</ele>
        <time>2014-08-05T05:04:10Z</time>
      </trkpt>
      <trkpt lat="44.32493" lon="2.62931">
        <ele>674.5021973</ele>
        <time>2014-08-05T05:04:16Z</time>
      </trkpt>
      <trkpt lat="44.32499" lon="2.6291">
        <ele>674.9829102</ele>
        <time>2014-08-05T05:04:21Z</time>
      </trkpt>
      <trkpt lat="44.32503" lon="2.62894">
        <ele>674.9829102</ele>
        <time>2014-08-05T05:04:25Z</time>
      </trkpt>
      <trkpt lat="44.32511" lon="2.62876">
        <ele>675.4633789</ele>
        <time>2014-08-05T05:04:30Z</time>
      </trkpt>
      <trkpt lat="44.32516" lon="2.62861">
        <ele>675.4633789</ele>
        <time>2014-08-05T05:04:34Z</time>
      </trkpt>
      <trkpt lat="44.32524" lon="2.6284">
        <ele>675.9440918</ele>
        <time>2014-08-05T05:04:39Z</time>
      </trkpt>
      <trkpt lat="44.32529" lon="2.62819">
        <ele>675.9440918</ele>
        <time>2014-08-05T05:04:44Z</time>
      </trkpt>
      <trkpt lat="44.32534" lon="2.62802">
        <ele>674.9829102</ele>
        <time>2014-08-05T05:04:48Z</time>
      </trkpt>
      <trkpt lat="44.3254" lon="2.62781">
        <ele>673.5410156</ele>
        <time>2014-08-05T05:04:53Z</time>
      </trkpt>
      <trkpt lat="44.32546" lon="2.62757">
        <ele>673.0603027</ele>
        <time>2014-08-05T05:04:59Z</time>
      </trkpt>
      <trkpt lat="44.32552" lon="2.62731">
        <ele>673.5410156</ele>
        <time>2014-08-05T05:05:05Z</time>
      </trkpt>
      <trkpt lat="44.32557" lon="2.62713">
        <ele>674.0214844</ele>
        <time>2014-08-05T05:05:09Z</time>
      </trkpt>
      <trkpt lat="44.32561" lon="2.62696">
        <ele>674.5021973</ele>
        <time>2014-08-05T05:05:13Z</time>
      </trkpt>
      <trkpt lat="44.32566" lon="2.62674">
        <ele>674.5021973</ele>
        <time>2014-08-05T05:05:18Z</time>
      </trkpt>
      <trkpt lat="44.32573" lon="2.62651">
        <ele>674.9829102</ele>
        <time>2014-08-05T05:05:23Z</time>
      </trkpt>
      <trkpt lat="44.32581" lon="2.62631">
        <ele>675.4633789</ele>
        <time>2014-08-05T05:05:28Z</time>
      </trkpt>
      <trkpt lat="44.32587" lon="2.6261">
        <ele>674.9829102</ele>
        <time>2014-08-05T05:05:33Z</time>
      </trkpt>
      <trkpt lat="44.3259" lon="2.62587">
        <ele>674.9829102</ele>
        <time>2014-08-05T05:05:38Z</time>
      </trkpt>
      <trkpt lat="44.32593" lon="2.6256">
        <ele>674.0214844</ele>
        <time>2014-08-05T05:05:44Z</time>
      </trkpt>
      <trkpt lat="44.32595" lon="2.62536">
        <ele>674.0214844</ele>
        <time>2014-08-05T05:05:49Z</time>
      </trkpt>
      <trkpt lat="44.32597" lon="2.62511">
        <ele>673.0603027</ele>
        <time>2014-08-05T05:05:54Z</time>
      </trkpt>
      <trkpt lat="44.32598" lon="2.62483">
        <ele>673.0603027</ele>
        <time>2014-08-05T05:06:00Z</time>
      </trkpt>
      <trkpt lat="44.32598" lon="2.62464">
        <ele>674.0214844</ele>
        <time>2014-08-05T05:06:04Z</time>
      </trkpt>
      <trkpt lat="44.32599" lon="2.62437">
        <ele>673.5410156</ele>
        <time>2014-08-05T05:06:10Z</time>
      </trkpt>
      <trkpt lat="44.32597" lon="2.6241">
        <ele>674.0214844</ele>
        <time>2014-08-05T05:06:16Z</time>
      </trkpt>
      <trkpt lat="44.32597" lon="2.62386">
        <ele>673.5410156</ele>
        <time>2014-08-05T05:06:21Z</time>
      </trkpt>
      <trkpt lat="44.32599" lon="2.62367">
        <ele>671.6181641</ele>
        <time>2014-08-05T05:06:25Z</time>
      </trkpt>
      <trkpt lat="44.32602" lon="2.62345">
        <ele>669.6958008</ele>
        <time>2014-08-05T05:06:30Z</time>
      </trkpt>
      <trkpt lat="44.32603" lon="2.62328">
        <ele>669.2150879</ele>
        <time>2014-08-05T05:06:34Z</time>
      </trkpt>
      <trkpt lat="44.32604" lon="2.62305">
        <ele>668.734375</ele>
        <time>2014-08-05T05:06:39Z</time>
      </trkpt>
      <trkpt lat="44.32603" lon="2.62287">
        <ele>667.2922363</ele>
        <time>2014-08-05T05:06:43Z</time>
      </trkpt>
      <trkpt lat="44.32599" lon="2.62265">
        <ele>666.8115234</ele>
        <time>2014-08-05T05:06:48Z</time>
      </trkpt>
      <trkpt lat="44.32595" lon="2.62242">
        <ele>665.8503418</ele>
        <time>2014-08-05T05:06:53Z</time>
      </trkpt>
      <trkpt lat="44.32591" lon="2.6222">
        <ele>664.888916</ele>
        <time>2014-08-05T05:06:58Z</time>
      </trkpt>
      <trkpt lat="44.32588" lon="2.62199">
        <ele>664.888916</ele>
        <time>2014-08-05T05:07:03Z</time>
      </trkpt>
      <trkpt lat="44.32587" lon="2.62193">
        <ele>664.888916</ele>
        <time>2014-08-05T05:07:05Z</time>
      </trkpt>
      <trkpt lat="44.32589" lon="2.62193">
        <ele>664.4082031</ele>
        <time>2014-08-05T05:07:10Z</time>
      </trkpt>
      <trkpt lat="44.32589" lon="2.62197">
        <ele>663.9274902</ele>
        <time>2014-08-05T05:07:13Z</time>
      </trkpt>
      <trkpt lat="44.32591" lon="2.62208">
        <ele>662.4855957</ele>
        <time>2014-08-05T05:07:23Z</time>
      </trkpt>
      <trkpt lat="44.32592" lon="2.62216">
        <ele>662.4855957</ele>
        <time>2014-08-05T05:07:30Z</time>
      </trkpt>
      <trkpt lat="44.32594" lon="2.62224">
        <ele>662.005127</ele>
        <time>2014-08-05T05:07:35Z</time>
      </trkpt>
      <trkpt lat="44.32595" lon="2.6223">
        <ele>662.005127</ele>
        <time>2014-08-05T05:07:39Z</time>
      </trkpt>
      <trkpt lat="44.32596" lon="2.62232">
        <ele>661.5244141</ele>
        <time>2014-08-05T05:07:41Z</time>
      </trkpt>
      <trkpt lat="44.32598" lon="2.62242">
        <ele>661.5244141</ele>
        <time>2014-08-05T05:07:49Z</time>
      </trkpt>
      <trkpt lat="44.32599" lon="2.62251">
        <ele>662.005127</ele>
        <time>2014-08-05T05:07:56Z</time>
      </trkpt>
      <trkpt lat="44.326" lon="2.62258">
        <ele>662.005127</ele>
        <time>2014-08-05T05:08:02Z</time>
      </trkpt>
      <trkpt lat="44.32601" lon="2.62264">
        <ele>662.4855957</ele>
        <time>2014-08-05T05:08:07Z</time>
      </trkpt>
      <trkpt lat="44.32602" lon="2.6227">
        <ele>662.9663086</ele>
        <time>2014-08-05T05:08:12Z</time>
      </trkpt>
      <trkpt lat="44.32604" lon="2.62281">
        <ele>662.9663086</ele>
        <time>2014-08-05T05:08:21Z</time>
      </trkpt>
      <trkpt lat="44.32605" lon="2.62286">
        <ele>663.4470215</ele>
        <time>2014-08-05T05:08:26Z</time>
      </trkpt>
      <trkpt lat="44.32607" lon="2.62295">
        <ele>663.9274902</ele>
        <time>2014-08-05T05:08:33Z</time>
      </trkpt>
      <trkpt lat="44.32607" lon="2.62303">
        <ele>663.9274902</ele>
        <time>2014-08-05T05:08:39Z</time>
      </trkpt>
      <trkpt lat="44.32607" lon="2.62312">
        <ele>663.9274902</ele>
        <time>2014-08-05T05:08:46Z</time>
      </trkpt>
      <trkpt lat="44.32606" lon="2.6232">
        <ele>663.4470215</ele>
        <time>2014-08-05T05:08:52Z</time>
      </trkpt>
      <trkpt lat="44.32606" lon="2.62328">
        <ele>662.4855957</ele>
        <time>2014-08-05T05:08:58Z</time>
      </trkpt>
      <trkpt lat="44.32606" lon="2.62336">
        <ele>662.4855957</ele>
        <time>2014-08-05T05:09:04Z</time>
      </trkpt>
      <trkpt lat="44.32605" lon="2.62346">
        <ele>663.4470215</ele>
        <time>2014-08-05T05:09:11Z</time>
      </trkpt>
      <trkpt lat="44.32604" lon="2.62354">
        <ele>663.9274902</ele>
        <time>2014-08-05T05:09:17Z</time>
      </trkpt>
      <trkpt lat="44.32602" lon="2.62364">
        <ele>663.9274902</ele>
        <time>2014-08-05T05:09:25Z</time>
      </trkpt>
      <trkpt lat="44.32602" lon="2.62372">
        <ele>664.4082031</ele>
        <time>2014-08-05T05:09:31Z</time>
      </trkpt>
      <trkpt lat="44.32601" lon="2.62381">
        <ele>665.8503418</ele>
        <time>2014-08-05T05:09:38Z</time>
      </trkpt>
      <trkpt lat="44.326" lon="2.62389">
        <ele>665.8503418</ele>
        <time>2014-08-05T05:09:44Z</time>
      </trkpt>
      <trkpt lat="44.32599" lon="2.62397">
        <ele>665.8503418</ele>
        <time>2014-08-05T05:09:50Z</time>
      </trkpt>
      <trkpt lat="44.32598" lon="2.62405">
        <ele>666.3308105</ele>
        <time>2014-08-05T05:09:57Z</time>
      </trkpt>
      <trkpt lat="44.32599" lon="2.62412">
        <ele>666.3308105</ele>
        <time>2014-08-05T05:10:02Z</time>
      </trkpt>
      <trkpt lat="44.32599" lon="2.62422">
        <ele>666.3308105</ele>
        <time>2014-08-05T05:10:09Z</time>
      </trkpt>
      <trkpt lat="44.32599" lon="2.6243">
        <ele>666.3308105</ele>
        <time>2014-08-05T05:10:15Z</time>
      </trkpt>
      <trkpt lat="44.32599" lon="2.62432">
        <ele>666.3308105</ele>
        <time>2014-08-05T05:10:21Z</time>
      </trkpt>
      <trkpt lat="44.326" lon="2.62427">
        <ele>666.3308105</ele>
        <time>2014-08-05T05:10:25Z</time>
      </trkpt>
      <trkpt lat="44.32599" lon="2.6242">
        <ele>665.8503418</ele>
        <time>2014-08-05T05:10:30Z</time>
      </trkpt>
      <trkpt lat="44.32598" lon="2.62416">
        <ele>665.8503418</ele>
        <time>2014-08-05T05:10:33Z</time>
      </trkpt>
      <trkpt lat="44.32598" lon="2.62408">
        <ele>664.888916</ele>
        <time>2014-08-05T05:10:39Z</time>
      </trkpt>
      <trkpt lat="44.32599" lon="2.624">
        <ele>664.888916</ele>
        <time>2014-08-05T05:10:44Z</time>
      </trkpt>
      <trkpt lat="44.32601" lon="2.62384">
        <ele>664.888916</ele>
        <time>2014-08-05T05:10:49Z</time>
      </trkpt>
      <trkpt lat="44.32601" lon="2.62362">
        <ele>665.3696289</ele>
        <time>2014-08-05T05:10:56Z</time>
      </trkpt>
      <trkpt lat="44.32602" lon="2.62346">
        <ele>665.3696289</ele>
        <time>2014-08-05T05:11:01Z</time>
      </trkpt>
      <trkpt lat="44.32604" lon="2.62328">
        <ele>665.3696289</ele>
        <time>2014-08-05T05:11:06Z</time>
      </trkpt>
      <trkpt lat="44.32605" lon="2.62305">
        <ele>665.8503418</ele>
        <time>2014-08-05T05:11:10Z</time>
      </trkpt>
      <trkpt lat="44.32604" lon="2.62278">
        <ele>665.8503418</ele>
        <time>2014-08-05T05:11:15Z</time>
      </trkpt>
      <trkpt lat="44.32599" lon="2.62253">
        <ele>666.3308105</ele>
        <time>2014-08-05T05:11:20Z</time>
      </trkpt>
      <trkpt lat="44.32594" lon="2.6223">
        <ele>665.3696289</ele>
        <time>2014-08-05T05:11:25Z</time>
      </trkpt>
      <trkpt lat="44.3259" lon="2.62212">
        <ele>665.8503418</ele>
        <time>2014-08-05T05:11:29Z</time>
      </trkpt>
      <trkpt lat="44.32587" lon="2.62188">
        <ele>665.3696289</ele>
        <time>2014-08-05T05:11:34Z</time>
      </trkpt>
      <trkpt lat="44.32586" lon="2.62169">
        <ele>664.888916</ele>
        <time>2014-08-05T05:11:38Z</time>
      </trkpt>
      <trkpt lat="44.32583" lon="2.62146">
        <ele>664.4082031</ele>
        <time>2014-08-05T05:11:43Z</time>
      </trkpt>
      <trkpt lat="44.32579" lon="2.62128">
        <ele>663.9274902</ele>
        <time>2014-08-05T05:11:47Z</time>
      </trkpt>
      <trkpt lat="44.32577" lon="2.62105">
        <ele>663.4470215</ele>
        <time>2014-08-05T05:11:52Z</time>
      </trkpt>
      <trkpt lat="44.32582" lon="2.6208">
        <ele>662.005127</ele>
        <time>2014-08-05T05:11:58Z</time>
      </trkpt>
      <trkpt lat="44.3259" lon="2.62064">
        <ele>661.0437012</ele>
        <time>2014-08-05T05:12:02Z</time>
      </trkpt>
      <trkpt lat="44.32598" lon="2.6205">
        <ele>660.5629883</ele>
        <time>2014-08-05T05:12:06Z</time>
      </trkpt>
      <trkpt lat="44.32604" lon="2.62035">
        <ele>660.5629883</ele>
        <time>2014-08-05T05:12:10Z</time>
      </trkpt>
      <trkpt lat="44.32611" lon="2.62018">
        <ele>661.0437012</ele>
        <time>2014-08-05T05:12:14Z</time>
      </trkpt>
      <trkpt lat="44.32618" lon="2.61994">
        <ele>662.4855957</ele>
        <time>2014-08-05T05:12:19Z</time>
      </trkpt>
      <trkpt lat="44.32622" lon="2.61977">
        <ele>663.9274902</ele>
        <time>2014-08-05T05:12:23Z</time>
      </trkpt>
      <trkpt lat="44.32632" lon="2.6196">
        <ele>662.005127</ele>
        <time>2014-08-05T05:12:28Z</time>
      </trkpt>
      <trkpt lat="44.32639" lon="2.61939">
        <ele>662.9663086</ele>
        <time>2014-08-05T05:12:33Z</time>
      </trkpt>
      <trkpt lat="44.32642" lon="2.61917">
        <ele>664.888916</ele>
        <time>2014-08-05T05:12:38Z</time>
      </trkpt>
      <trkpt lat="44.32646" lon="2.619">
        <ele>665.8503418</ele>
        <time>2014-08-05T05:12:42Z</time>
      </trkpt>
      <trkpt lat="44.32651" lon="2.6188">
        <ele>662.9663086</ele>
        <time>2014-08-05T05:12:47Z</time>
      </trkpt>
      <trkpt lat="44.32658" lon="2.61856">
        <ele>660.0822754</ele>
        <time>2014-08-05T05:12:53Z</time>
      </trkpt>
      <trkpt lat="44.32663" lon="2.61836">
        <ele>658.1599121</ele>
        <time>2014-08-05T05:12:58Z</time>
      </trkpt>
      <trkpt lat="44.32667" lon="2.61814">
        <ele>657.1984863</ele>
        <time>2014-08-05T05:13:03Z</time>
      </trkpt>
      <trkpt lat="44.32669" lon="2.61791">
        <ele>660.0822754</ele>
        <time>2014-08-05T05:13:08Z</time>
      </trkpt>
      <trkpt lat="44.32672" lon="2.61774">
        <ele>660.0822754</ele>
        <time>2014-08-05T05:13:12Z</time>
      </trkpt>
      <trkpt lat="44.32675" lon="2.61746">
        <ele>660.0822754</ele>
        <time>2014-08-05T05:13:18Z</time>
      </trkpt>
      <trkpt lat="44.3268" lon="2.6173">
        <ele>660.0822754</ele>
        <time>2014-08-05T05:13:22Z</time>
      </trkpt>
      <trkpt lat="44.32684" lon="2.61714">
        <ele>660.5629883</ele>
        <time>2014-08-05T05:13:26Z</time>
      </trkpt>
      <trkpt lat="44.32685" lon="2.61692">
        <ele>662.9663086</ele>
        <time>2014-08-05T05:13:30Z</time>
      </trkpt>
      <trkpt lat="44.3269" lon="2.61673">
        <ele>662.4855957</ele>
        <time>2014-08-05T05:13:34Z</time>
      </trkpt>
      <trkpt lat="44.32694" lon="2.61656">
        <ele>661.5244141</ele>
        <time>2014-08-05T05:13:38Z</time>
      </trkpt>
      <trkpt lat="44.32698" lon="2.61638">
        <ele>660.0822754</ele>
        <time>2014-08-05T05:13:42Z</time>
      </trkpt>
      <trkpt lat="44.32702" lon="2.61616">
        <ele>660.0822754</ele>
        <time>2014-08-05T05:13:47Z</time>
      </trkpt>
      <trkpt lat="44.32706" lon="2.61593">
        <ele>660.5629883</ele>
        <time>2014-08-05T05:13:52Z</time>
      </trkpt>
      <trkpt lat="44.32709" lon="2.61575">
        <ele>661.0437012</ele>
        <time>2014-08-05T05:13:56Z</time>
      </trkpt>
      <trkpt lat="44.32712" lon="2.61553">
        <ele>661.5244141</ele>
        <time>2014-08-05T05:14:01Z</time>
      </trkpt>
      <trkpt lat="44.3272" lon="2.6153">
        <ele>662.4855957</ele>
        <time>2014-08-05T05:14:07Z</time>
      </trkpt>
      <trkpt lat="44.32724" lon="2.61508">
        <ele>663.4470215</ele>
        <time>2014-08-05T05:14:12Z</time>
      </trkpt>
      <trkpt lat="44.32726" lon="2.61491">
        <ele>662.9663086</ele>
        <time>2014-08-05T05:14:16Z</time>
      </trkpt>
      <trkpt lat="44.32734" lon="2.61467">
        <ele>663.9274902</ele>
        <time>2014-08-05T05:14:22Z</time>
      </trkpt>
      <trkpt lat="44.32735" lon="2.61464">
        <ele>663.9274902</ele>
        <time>2014-08-05T05:14:23Z</time>
      </trkpt>
      <trkpt lat="44.32741" lon="2.61439">
        <ele>664.888916</ele>
        <time>2014-08-05T05:14:30Z</time>
      </trkpt>
      <trkpt lat="44.32744" lon="2.61415">
        <ele>665.8503418</ele>
        <time>2014-08-05T05:14:35Z</time>
      </trkpt>
      <trkpt lat="44.32748" lon="2.61398">
        <ele>666.8115234</ele>
        <time>2014-08-05T05:14:39Z</time>
      </trkpt>
      <trkpt lat="44.32754" lon="2.61378">
        <ele>665.8503418</ele>
        <time>2014-08-05T05:14:44Z</time>
      </trkpt>
      <trkpt lat="44.32764" lon="2.61349">
        <ele>662.4855957</ele>
        <time>2014-08-05T05:14:51Z</time>
      </trkpt>
      <trkpt lat="44.32773" lon="2.6133">
        <ele>660.5629883</ele>
        <time>2014-08-05T05:14:56Z</time>
      </trkpt>
      <trkpt lat="44.32781" lon="2.6131">
        <ele>659.1210938</ele>
        <time>2014-08-05T05:15:01Z</time>
      </trkpt>
      <trkpt lat="44.32792" lon="2.61287">
        <ele>658.6403809</ele>
        <time>2014-08-05T05:15:07Z</time>
      </trkpt>
      <trkpt lat="44.32802" lon="2.61259">
        <ele>658.1599121</ele>
        <time>2014-08-05T05:15:14Z</time>
      </trkpt>
      <trkpt lat="44.32812" lon="2.61241">
        <ele>659.1210938</ele>
        <time>2014-08-05T05:15:19Z</time>
      </trkpt>
      <trkpt lat="44.3282" lon="2.61227">
        <ele>659.1210938</ele>
        <time>2014-08-05T05:15:23Z</time>
      </trkpt>
      <trkpt lat="44.32832" lon="2.61205">
        <ele>658.6403809</ele>
        <time>2014-08-05T05:15:29Z</time>
      </trkpt>
      <trkpt lat="44.32842" lon="2.61189">
        <ele>658.1599121</ele>
        <time>2014-08-05T05:15:34Z</time>
      </trkpt>
      <trkpt lat="44.32855" lon="2.6117">
        <ele>657.6791992</ele>
        <time>2014-08-05T05:15:40Z</time>
      </trkpt>
      <trkpt lat="44.32867" lon="2.61152">
        <ele>657.1984863</ele>
        <time>2014-08-05T05:15:45Z</time>
      </trkpt>
      <trkpt lat="44.32872" lon="2.6114">
        <ele>656.2370605</ele>
        <time>2014-08-05T05:15:48Z</time>
      </trkpt>
      <trkpt lat="44.3288" lon="2.61127">
        <ele>655.2758789</ele>
        <time>2014-08-05T05:15:52Z</time>
      </trkpt>
      <trkpt lat="44.32896" lon="2.61103">
        <ele>652.8725586</ele>
        <time>2014-08-05T05:15:59Z</time>
      </trkpt>
      <trkpt lat="44.32907" lon="2.61086">
        <ele>651.9111328</ele>
        <time>2014-08-05T05:16:04Z</time>
      </trkpt>
      <trkpt lat="44.32922" lon="2.61063">
        <ele>650.949707</ele>
        <time>2014-08-05T05:16:11Z</time>
      </trkpt>
      <trkpt lat="44.32936" lon="2.61045">
        <ele>649.9885254</ele>
        <time>2014-08-05T05:16:17Z</time>
      </trkpt>
      <trkpt lat="44.32953" lon="2.61025">
        <ele>649.0270996</ele>
        <time>2014-08-05T05:16:24Z</time>
      </trkpt>
      <trkpt lat="44.32966" lon="2.61014">
        <ele>648.065918</ele>
        <time>2014-08-05T05:16:29Z</time>
      </trkpt>
      <trkpt lat="44.32977" lon="2.61004">
        <ele>646.6240234</ele>
        <time>2014-08-05T05:16:33Z</time>
      </trkpt>
      <trkpt lat="44.32991" lon="2.6099">
        <ele>645.6625977</ele>
        <time>2014-08-05T05:16:38Z</time>
      </trkpt>
      <trkpt lat="44.33003" lon="2.60982">
        <ele>644.7011719</ele>
        <time>2014-08-05T05:16:42Z</time>
      </trkpt>
      <trkpt lat="44.33018" lon="2.60971">
        <ele>642.7788086</ele>
        <time>2014-08-05T05:16:47Z</time>
      </trkpt>
      <trkpt lat="44.33039" lon="2.60958">
        <ele>642.2980957</ele>
        <time>2014-08-05T05:16:54Z</time>
      </trkpt>
      <trkpt lat="44.33062" lon="2.60942">
        <ele>641.3366699</ele>
        <time>2014-08-05T05:17:01Z</time>
      </trkpt>
      <trkpt lat="44.33068" lon="2.60931">
        <ele>642.7788086</ele>
        <time>2014-08-05T05:17:05Z</time>
      </trkpt>
      <trkpt lat="44.33078" lon="2.6092">
        <ele>640.855957</ele>
        <time>2014-08-05T05:17:09Z</time>
      </trkpt>
      <trkpt lat="44.33093" lon="2.60904">
        <ele>639.4140625</ele>
        <time>2014-08-05T05:17:14Z</time>
      </trkpt>
      <trkpt lat="44.33106" lon="2.60887">
        <ele>638.9335938</ele>
        <time>2014-08-05T05:17:19Z</time>
      </trkpt>
      <trkpt lat="44.33123" lon="2.6087">
        <ele>638.4528809</ele>
        <time>2014-08-05T05:17:25Z</time>
      </trkpt>
      <trkpt lat="44.33135" lon="2.60859">
        <ele>637.4914551</ele>
        <time>2014-08-05T05:17:29Z</time>
      </trkpt>
      <trkpt lat="44.33149" lon="2.60846">
        <ele>637.0107422</ele>
        <time>2014-08-05T05:17:34Z</time>
      </trkpt>
      <trkpt lat="44.33161" lon="2.60836">
        <ele>636.0495605</ele>
        <time>2014-08-05T05:17:38Z</time>
      </trkpt>
      <trkpt lat="44.33178" lon="2.60821">
        <ele>635.5686035</ele>
        <time>2014-08-05T05:17:44Z</time>
      </trkpt>
      <trkpt lat="44.33189" lon="2.60808">
        <ele>635.5686035</ele>
        <time>2014-08-05T05:17:48Z</time>
      </trkpt>
      <trkpt lat="44.33196" lon="2.60796">
        <ele>634.6074219</ele>
        <time>2014-08-05T05:17:51Z</time>
      </trkpt>
      <trkpt lat="44.33207" lon="2.60781">
        <ele>634.126709</ele>
        <time>2014-08-05T05:17:56Z</time>
      </trkpt>
      <trkpt lat="44.33209" lon="2.60777">
        <ele>633.6459961</ele>
        <time>2014-08-05T05:17:57Z</time>
      </trkpt>
      <trkpt lat="44.33216" lon="2.60755">
        <ele>632.6848145</ele>
        <time>2014-08-05T05:18:02Z</time>
      </trkpt>
      <trkpt lat="44.33224" lon="2.60726">
        <ele>633.1652832</ele>
        <time>2014-08-05T05:18:08Z</time>
      </trkpt>
      <trkpt lat="44.33234" lon="2.60713">
        <ele>632.2041016</ele>
        <time>2014-08-05T05:18:12Z</time>
      </trkpt>
      <trkpt lat="44.33246" lon="2.60694">
        <ele>630.762207</ele>
        <time>2014-08-05T05:18:17Z</time>
      </trkpt>
      <trkpt lat="44.33256" lon="2.60681">
        <ele>629.3200684</ele>
        <time>2014-08-05T05:18:21Z</time>
      </trkpt>
      <trkpt lat="44.33266" lon="2.60665">
        <ele>627.8781738</ele>
        <time>2014-08-05T05:18:25Z</time>
      </trkpt>
      <trkpt lat="44.33281" lon="2.60645">
        <ele>624.5136719</ele>
        <time>2014-08-05T05:18:31Z</time>
      </trkpt>
      <trkpt lat="44.33295" lon="2.60635">
        <ele>621.6296387</ele>
        <time>2014-08-05T05:18:35Z</time>
      </trkpt>
      <trkpt lat="44.33309" lon="2.60627">
        <ele>619.7070313</ele>
        <time>2014-08-05T05:18:39Z</time>
      </trkpt>
      <trkpt lat="44.3333" lon="2.60621">
        <ele>616.3422852</ele>
        <time>2014-08-05T05:18:45Z</time>
      </trkpt>
      <trkpt lat="44.33348" lon="2.60615">
        <ele>613.4584961</ele>
        <time>2014-08-05T05:18:50Z</time>
      </trkpt>
      <trkpt lat="44.33369" lon="2.60605">
        <ele>610.09375</ele>
        <time>2014-08-05T05:18:56Z</time>
      </trkpt>
      <trkpt lat="44.33385" lon="2.60606">
        <ele>606.2485352</ele>
        <time>2014-08-05T05:19:01Z</time>
      </trkpt>
      <trkpt lat="44.33403" lon="2.60612">
        <ele>603.364502</ele>
        <time>2014-08-05T05:19:06Z</time>
      </trkpt>
      <trkpt lat="44.33419" lon="2.60616">
        <ele>600.9611816</ele>
        <time>2014-08-05T05:19:11Z</time>
      </trkpt>
      <trkpt lat="44.33428" lon="2.60615">
        <ele>600</ele>
        <time>2014-08-05T05:19:16Z</time>
      </trkpt>
      <trkpt lat="44.33438" lon="2.60618">
        <ele>600.9611816</ele>
        <time>2014-08-05T05:19:24Z</time>
      </trkpt>
      <trkpt lat="44.33445" lon="2.60625">
        <ele>602.8837891</ele>
        <time>2014-08-05T05:19:30Z</time>
      </trkpt>
      <trkpt lat="44.33447" lon="2.60631">
        <ele>603.364502</ele>
        <time>2014-08-05T05:19:34Z</time>
      </trkpt>
      <trkpt lat="44.33448" lon="2.60647">
        <ele>604.8066406</ele>
        <time>2014-08-05T05:19:43Z</time>
      </trkpt>
      <trkpt lat="44.33448" lon="2.60659">
        <ele>605.7680664</ele>
        <time>2014-08-05T05:19:50Z</time>
      </trkpt>
      <trkpt lat="44.3345" lon="2.60669">
        <ele>606.2485352</ele>
        <time>2014-08-05T05:19:57Z</time>
      </trkpt>
      <trkpt lat="44.33453" lon="2.60682">
        <ele>607.2099609</ele>
        <time>2014-08-05T05:20:05Z</time>
      </trkpt>
      <trkpt lat="44.33454" lon="2.60691">
        <ele>607.6906738</ele>
        <time>2014-08-05T05:20:10Z</time>
      </trkpt>
      <trkpt lat="44.33456" lon="2.60701">
        <ele>607.2099609</ele>
        <time>2014-08-05T05:20:17Z</time>
      </trkpt>
      <trkpt lat="44.33458" lon="2.60713">
        <ele>606.729248</ele>
        <time>2014-08-05T05:20:24Z</time>
      </trkpt>
      <trkpt lat="44.33461" lon="2.60723">
        <ele>606.2485352</ele>
        <time>2014-08-05T05:20:30Z</time>
      </trkpt>
      <trkpt lat="44.33466" lon="2.60731">
        <ele>606.2485352</ele>
        <time>2014-08-05T05:20:35Z</time>
      </trkpt>
      <trkpt lat="44.33468" lon="2.60737">
        <ele>605.2873535</ele>
        <time>2014-08-05T05:20:40Z</time>
      </trkpt>
      <trkpt lat="44.33469" lon="2.60738">
        <ele>605.2873535</ele>
        <time>2014-08-05T05:20:41Z</time>
      </trkpt>
      <trkpt lat="44.33475" lon="2.60743">
        <ele>604.8066406</ele>
        <time>2014-08-05T05:20:46Z</time>
      </trkpt>
      <trkpt lat="44.3348" lon="2.60746">
        <ele>603.8452148</ele>
        <time>2014-08-05T05:20:51Z</time>
      </trkpt>
      <trkpt lat="44.33481" lon="2.60747">
        <ele>603.364502</ele>
        <time>2014-08-05T05:20:52Z</time>
      </trkpt>
      <trkpt lat="44.33484" lon="2.60748">
        <ele>602.8837891</ele>
        <time>2014-08-05T05:20:56Z</time>
      </trkpt>
      <trkpt lat="44.33493" lon="2.60753">
        <ele>603.364502</ele>
        <time>2014-08-05T05:21:02Z</time>
      </trkpt>
      <trkpt lat="44.335" lon="2.60758">
        <ele>602.8837891</ele>
        <time>2014-08-05T05:21:07Z</time>
      </trkpt>
      <trkpt lat="44.33505" lon="2.60765">
        <ele>603.364502</ele>
        <time>2014-08-05T05:21:12Z</time>
      </trkpt>
      <trkpt lat="44.33509" lon="2.60778">
        <ele>603.8452148</ele>
        <time>2014-08-05T05:21:19Z</time>
      </trkpt>
      <trkpt lat="44.33511" lon="2.60784">
        <ele>604.3261719</ele>
        <time>2014-08-05T05:21:22Z</time>
      </trkpt>
      <trkpt lat="44.33512" lon="2.60794">
        <ele>603.8452148</ele>
        <time>2014-08-05T05:21:26Z</time>
      </trkpt>
      <trkpt lat="44.33512" lon="2.60812">
        <ele>601.4418945</ele>
        <time>2014-08-05T05:21:32Z</time>
      </trkpt>
      <trkpt lat="44.33513" lon="2.60828">
        <ele>598.5578613</ele>
        <time>2014-08-05T05:21:37Z</time>
      </trkpt>
      <trkpt lat="44.33514" lon="2.6084">
        <ele>596.635498</ele>
        <time>2014-08-05T05:21:41Z</time>
      </trkpt>
      <trkpt lat="44.33519" lon="2.60854">
        <ele>596.635498</ele>
        <time>2014-08-05T05:21:46Z</time>
      </trkpt>
      <trkpt lat="44.33524" lon="2.60866">
        <ele>596.635498</ele>
        <time>2014-08-05T05:21:50Z</time>
      </trkpt>
      <trkpt lat="44.33531" lon="2.60878">
        <ele>595.1933594</ele>
        <time>2014-08-05T05:21:54Z</time>
      </trkpt>
      <trkpt lat="44.33536" lon="2.60891">
        <ele>595.1933594</ele>
        <time>2014-08-05T05:21:58Z</time>
      </trkpt>
      <trkpt lat="44.3354" lon="2.60908">
        <ele>595.6740723</ele>
        <time>2014-08-05T05:22:03Z</time>
      </trkpt>
      <trkpt lat="44.33542" lon="2.60915">
        <ele>595.1933594</ele>
        <time>2014-08-05T05:22:05Z</time>
      </trkpt>
      <trkpt lat="44.33545" lon="2.60938">
        <ele>597.5966797</ele>
        <time>2014-08-05T05:22:12Z</time>
      </trkpt>
      <trkpt lat="44.33546" lon="2.60942">
        <ele>597.5966797</ele>
        <time>2014-08-05T05:22:13Z</time>
      </trkpt>
      <trkpt lat="44.33554" lon="2.60965">
        <ele>598.5578613</ele>
        <time>2014-08-05T05:22:20Z</time>
      </trkpt>
      <trkpt lat="44.33561" lon="2.60985">
        <ele>597.1159668</ele>
        <time>2014-08-05T05:22:26Z</time>
      </trkpt>
      <trkpt lat="44.33567" lon="2.61001">
        <ele>595.1933594</ele>
        <time>2014-08-05T05:22:31Z</time>
      </trkpt>
      <trkpt lat="44.33584" lon="2.61019">
        <ele>594.7126465</ele>
        <time>2014-08-05T05:22:38Z</time>
      </trkpt>
      <trkpt lat="44.33595" lon="2.61033">
        <ele>594.7126465</ele>
        <time>2014-08-05T05:22:42Z</time>
      </trkpt>
      <trkpt lat="44.33603" lon="2.61047">
        <ele>595.6740723</ele>
        <time>2014-08-05T05:22:46Z</time>
      </trkpt>
      <trkpt lat="44.33621" lon="2.61066">
        <ele>597.5966797</ele>
        <time>2014-08-05T05:22:53Z</time>
      </trkpt>
      <trkpt lat="44.33623" lon="2.61068">
        <ele>597.5966797</ele>
        <time>2014-08-05T05:22:54Z</time>
      </trkpt>
      <trkpt lat="44.3363" lon="2.61087">
        <ele>598.5578613</ele>
        <time>2014-08-05T05:22:59Z</time>
      </trkpt>
      <trkpt lat="44.33634" lon="2.61101">
        <ele>600</ele>
        <time>2014-08-05T05:23:02Z</time>
      </trkpt>
      <trkpt lat="44.33631" lon="2.61128">
        <ele>601.4418945</ele>
        <time>2014-08-05T05:23:08Z</time>
      </trkpt>
      <trkpt lat="44.33635" lon="2.61144">
        <ele>602.4030762</ele>
        <time>2014-08-05T05:23:12Z</time>
      </trkpt>
      <trkpt lat="44.33642" lon="2.61163">
        <ele>602.8837891</ele>
        <time>2014-08-05T05:23:17Z</time>
      </trkpt>
      <trkpt lat="44.33649" lon="2.61178">
        <ele>602.8837891</ele>
        <time>2014-08-05T05:23:22Z</time>
      </trkpt>
      <trkpt lat="44.3366" lon="2.61193">
        <ele>604.8066406</ele>
        <time>2014-08-05T05:23:27Z</time>
      </trkpt>
      <trkpt lat="44.33668" lon="2.61206">
        <ele>605.2873535</ele>
        <time>2014-08-05T05:23:31Z</time>
      </trkpt>
      <trkpt lat="44.33672" lon="2.61227">
        <ele>606.729248</ele>
        <time>2014-08-05T05:23:36Z</time>
      </trkpt>
      <trkpt lat="44.33668" lon="2.61244">
        <ele>607.2099609</ele>
        <time>2014-08-05T05:23:40Z</time>
      </trkpt>
      <trkpt lat="44.33662" lon="2.61265">
        <ele>609.6132813</ele>
        <time>2014-08-05T05:23:45Z</time>
      </trkpt>
      <trkpt lat="44.33656" lon="2.61284">
        <ele>610.5744629</ele>
        <time>2014-08-05T05:23:50Z</time>
      </trkpt>
      <trkpt lat="44.33649" lon="2.61303">
        <ele>611.5358887</ele>
        <time>2014-08-05T05:23:55Z</time>
      </trkpt>
      <trkpt lat="44.33644" lon="2.61318">
        <ele>612.4970703</ele>
        <time>2014-08-05T05:23:59Z</time>
      </trkpt>
      <trkpt lat="44.33638" lon="2.61335">
        <ele>612.4970703</ele>
        <time>2014-08-05T05:24:04Z</time>
      </trkpt>
      <trkpt lat="44.33632" lon="2.61354">
        <ele>613.9389648</ele>
        <time>2014-08-05T05:24:09Z</time>
      </trkpt>
      <trkpt lat="44.33626" lon="2.6137">
        <ele>614.9003906</ele>
        <time>2014-08-05T05:24:13Z</time>
      </trkpt>
      <trkpt lat="44.33621" lon="2.61385">
        <ele>615.3811035</ele>
        <time>2014-08-05T05:24:17Z</time>
      </trkpt>
      <trkpt lat="44.33615" lon="2.61407">
        <ele>614.9003906</ele>
        <time>2014-08-05T05:24:23Z</time>
      </trkpt>
      <trkpt lat="44.3361" lon="2.61424">
        <ele>614.9003906</ele>
        <time>2014-08-05T05:24:27Z</time>
      </trkpt>
      <trkpt lat="44.33604" lon="2.61442">
        <ele>615.3811035</ele>
        <time>2014-08-05T05:24:32Z</time>
      </trkpt>
      <trkpt lat="44.33596" lon="2.61461">
        <ele>615.3811035</ele>
        <time>2014-08-05T05:24:37Z</time>
      </trkpt>
      <trkpt lat="44.33589" lon="2.61485">
        <ele>615.3811035</ele>
        <time>2014-08-05T05:24:43Z</time>
      </trkpt>
      <trkpt lat="44.33582" lon="2.61503">
        <ele>615.3811035</ele>
        <time>2014-08-05T05:24:48Z</time>
      </trkpt>
      <trkpt lat="44.33575" lon="2.61521">
        <ele>615.3811035</ele>
        <time>2014-08-05T05:24:53Z</time>
      </trkpt>
      <trkpt lat="44.33568" lon="2.61542">
        <ele>615.8618164</ele>
        <time>2014-08-05T05:24:59Z</time>
      </trkpt>
      <trkpt lat="44.3356" lon="2.61568">
        <ele>617.3037109</ele>
        <time>2014-08-05T05:25:06Z</time>
      </trkpt>
      <trkpt lat="44.33555" lon="2.61587">
        <ele>618.7456055</ele>
        <time>2014-08-05T05:25:11Z</time>
      </trkpt>
      <trkpt lat="44.33552" lon="2.61602">
        <ele>619.7070313</ele>
        <time>2014-08-05T05:25:15Z</time>
      </trkpt>
      <trkpt lat="44.33547" lon="2.6162">
        <ele>620.668457</ele>
        <time>2014-08-05T05:25:20Z</time>
      </trkpt>
      <trkpt lat="44.33542" lon="2.61642">
        <ele>621.1491699</ele>
        <time>2014-08-05T05:25:26Z</time>
      </trkpt>
      <trkpt lat="44.33538" lon="2.61658">
        <ele>621.1491699</ele>
        <time>2014-08-05T05:25:30Z</time>
      </trkpt>
      <trkpt lat="44.33535" lon="2.61676">
        <ele>620.668457</ele>
        <time>2014-08-05T05:25:35Z</time>
      </trkpt>
      <trkpt lat="44.33533" lon="2.61695">
        <ele>620.1877441</ele>
        <time>2014-08-05T05:25:40Z</time>
      </trkpt>
      <trkpt lat="44.3353" lon="2.61716">
        <ele>621.1491699</ele>
        <time>2014-08-05T05:25:46Z</time>
      </trkpt>
      <trkpt lat="44.33528" lon="2.61734">
        <ele>622.1103516</ele>
        <time>2014-08-05T05:25:51Z</time>
      </trkpt>
      <trkpt lat="44.33525" lon="2.61753">
        <ele>623.0717773</ele>
        <time>2014-08-05T05:25:56Z</time>
      </trkpt>
      <trkpt lat="44.33524" lon="2.61769">
        <ele>623.0717773</ele>
        <time>2014-08-05T05:26:00Z</time>
      </trkpt>
      <trkpt lat="44.33525" lon="2.61787">
        <ele>623.0717773</ele>
        <time>2014-08-05T05:26:05Z</time>
      </trkpt>
      <trkpt lat="44.33529" lon="2.61801">
        <ele>623.5524902</ele>
        <time>2014-08-05T05:26:09Z</time>
      </trkpt>
      <trkpt lat="44.33533" lon="2.61817">
        <ele>624.032959</ele>
        <time>2014-08-05T05:26:13Z</time>
      </trkpt>
      <trkpt lat="44.33539" lon="2.61833">
        <ele>624.9943848</ele>
        <time>2014-08-05T05:26:17Z</time>
      </trkpt>
      <trkpt lat="44.33549" lon="2.6185">
        <ele>625.9555664</ele>
        <time>2014-08-05T05:26:22Z</time>
      </trkpt>
      <trkpt lat="44.33561" lon="2.61865">
        <ele>626.9169922</ele>
        <time>2014-08-05T05:26:27Z</time>
      </trkpt>
      <trkpt lat="44.33574" lon="2.61875">
        <ele>628.3588867</ele>
        <time>2014-08-05T05:26:32Z</time>
      </trkpt>
      <trkpt lat="44.33597" lon="2.61888">
        <ele>631.2429199</ele>
        <time>2014-08-05T05:26:40Z</time>
      </trkpt>
      <trkpt lat="44.33616" lon="2.61899">
        <ele>633.1652832</ele>
        <time>2014-08-05T05:26:47Z</time>
      </trkpt>
      <trkpt lat="44.3363" lon="2.61908">
        <ele>634.126709</ele>
        <time>2014-08-05T05:26:52Z</time>
      </trkpt>
      <trkpt lat="44.33643" lon="2.61916">
        <ele>634.6074219</ele>
        <time>2014-08-05T05:26:57Z</time>
      </trkpt>
      <trkpt lat="44.33656" lon="2.61928">
        <ele>635.5686035</ele>
        <time>2014-08-05T05:27:02Z</time>
      </trkpt>
      <trkpt lat="44.3367" lon="2.61946">
        <ele>636.0495605</ele>
        <time>2014-08-05T05:27:08Z</time>
      </trkpt>
      <trkpt lat="44.33683" lon="2.61971">
        <ele>636.5302734</ele>
        <time>2014-08-05T05:27:15Z</time>
      </trkpt>
      <trkpt lat="44.33693" lon="2.61989">
        <ele>638.4528809</ele>
        <time>2014-08-05T05:27:20Z</time>
      </trkpt>
      <trkpt lat="44.33699" lon="2.62007">
        <ele>638.4528809</ele>
        <time>2014-08-05T05:27:25Z</time>
      </trkpt>
      <trkpt lat="44.33701" lon="2.62028">
        <ele>640.3754883</ele>
        <time>2014-08-05T05:27:30Z</time>
      </trkpt>
      <trkpt lat="44.33703" lon="2.62048">
        <ele>641.8173828</ele>
        <time>2014-08-05T05:27:35Z</time>
      </trkpt>
      <trkpt lat="44.33705" lon="2.62068">
        <ele>643.2592773</ele>
        <time>2014-08-05T05:27:40Z</time>
      </trkpt>
      <trkpt lat="44.33708" lon="2.62084">
        <ele>644.7011719</ele>
        <time>2014-08-05T05:27:44Z</time>
      </trkpt>
      <trkpt lat="44.3371" lon="2.62107">
        <ele>646.1433105</ele>
        <time>2014-08-05T05:27:50Z</time>
      </trkpt>
      <trkpt lat="44.33711" lon="2.62123">
        <ele>647.5852051</ele>
        <time>2014-08-05T05:27:54Z</time>
      </trkpt>
      <trkpt lat="44.33712" lon="2.62141">
        <ele>648.065918</ele>
        <time>2014-08-05T05:27:58Z</time>
      </trkpt>
      <trkpt lat="44.33708" lon="2.62157">
        <ele>649.0270996</ele>
        <time>2014-08-05T05:28:02Z</time>
      </trkpt>
      <trkpt lat="44.33703" lon="2.62176">
        <ele>649.9885254</ele>
        <time>2014-08-05T05:28:07Z</time>
      </trkpt>
      <trkpt lat="44.33698" lon="2.62192">
        <ele>650.4692383</ele>
        <time>2014-08-05T05:28:11Z</time>
      </trkpt>
      <trkpt lat="44.33696" lon="2.62204">
        <ele>650.949707</ele>
        <time>2014-08-05T05:28:14Z</time>
      </trkpt>
      <trkpt lat="44.33691" lon="2.62219">
        <ele>650.949707</ele>
        <time>2014-08-05T05:28:18Z</time>
      </trkpt>
      <trkpt lat="44.33683" lon="2.62241">
        <ele>649.9885254</ele>
        <time>2014-08-05T05:28:24Z</time>
      </trkpt>
      <trkpt lat="44.33679" lon="2.62255">
        <ele>649.9885254</ele>
        <time>2014-08-05T05:28:28Z</time>
      </trkpt>
      <trkpt lat="44.33674" lon="2.62268">
        <ele>649.9885254</ele>
        <time>2014-08-05T05:28:32Z</time>
      </trkpt>
      <trkpt lat="44.33667" lon="2.62291">
        <ele>650.4692383</ele>
        <time>2014-08-05T05:28:38Z</time>
      </trkpt>
      <trkpt lat="44.33661" lon="2.62309">
        <ele>651.4304199</ele>
        <time>2014-08-05T05:28:43Z</time>
      </trkpt>
      <trkpt lat="44.3365" lon="2.6233">
        <ele>652.8725586</ele>
        <time>2014-08-05T05:28:49Z</time>
      </trkpt>
      <trkpt lat="44.33644" lon="2.62348">
        <ele>654.3146973</ele>
        <time>2014-08-05T05:28:54Z</time>
      </trkpt>
      <trkpt lat="44.3364" lon="2.62372">
        <ele>654.3146973</ele>
        <time>2014-08-05T05:29:00Z</time>
      </trkpt>
      <trkpt lat="44.33641" lon="2.6239">
        <ele>655.7565918</ele>
        <time>2014-08-05T05:29:05Z</time>
      </trkpt>
      <trkpt lat="44.33643" lon="2.62409">
        <ele>657.1984863</ele>
        <time>2014-08-05T05:29:10Z</time>
      </trkpt>
      <trkpt lat="44.33645" lon="2.62425">
        <ele>658.6403809</ele>
        <time>2014-08-05T05:29:14Z</time>
      </trkpt>
      <trkpt lat="44.33647" lon="2.62443">
        <ele>660.0822754</ele>
        <time>2014-08-05T05:29:18Z</time>
      </trkpt>
      <trkpt lat="44.33648" lon="2.62455">
        <ele>660.5629883</ele>
        <time>2014-08-05T05:29:21Z</time>
      </trkpt>
      <trkpt lat="44.33649" lon="2.62476">
        <ele>661.5244141</ele>
        <time>2014-08-05T05:29:26Z</time>
      </trkpt>
      <trkpt lat="44.33651" lon="2.62495">
        <ele>662.005127</ele>
        <time>2014-08-05T05:29:31Z</time>
      </trkpt>
      <trkpt lat="44.33651" lon="2.62511">
        <ele>663.4470215</ele>
        <time>2014-08-05T05:29:35Z</time>
      </trkpt>
      <trkpt lat="44.33654" lon="2.6253">
        <ele>664.4082031</ele>
        <time>2014-08-05T05:29:40Z</time>
      </trkpt>
      <trkpt lat="44.33655" lon="2.62539">
        <ele>665.3696289</ele>
        <time>2014-08-05T05:29:45Z</time>
      </trkpt>
      <trkpt lat="44.33656" lon="2.62541">
        <ele>665.8503418</ele>
        <time>2014-08-05T05:29:51Z</time>
      </trkpt>
      <trkpt lat="44.33657" lon="2.62547">
        <ele>668.2536621</ele>
        <time>2014-08-05T05:29:56Z</time>
      </trkpt>
      <trkpt lat="44.33658" lon="2.62555">
        <ele>668.734375</ele>
        <time>2014-08-05T05:30:02Z</time>
      </trkpt>
      <trkpt lat="44.33658" lon="2.62567">
        <ele>668.2536621</ele>
        <time>2014-08-05T05:30:10Z</time>
      </trkpt>
      <trkpt lat="44.33659" lon="2.62573">
        <ele>667.2922363</ele>
        <time>2014-08-05T05:30:14Z</time>
      </trkpt>
      <trkpt lat="44.3366" lon="2.62589">
        <ele>665.8503418</ele>
        <time>2014-08-05T05:30:20Z</time>
      </trkpt>
      <trkpt lat="44.3366" lon="2.62604">
        <ele>665.8503418</ele>
        <time>2014-08-05T05:30:25Z</time>
      </trkpt>
      <trkpt lat="44.33658" lon="2.62622">
        <ele>667.2922363</ele>
        <time>2014-08-05T05:30:31Z</time>
      </trkpt>
      <trkpt lat="44.33656" lon="2.62637">
        <ele>668.2536621</ele>
        <time>2014-08-05T05:30:36Z</time>
      </trkpt>
      <trkpt lat="44.33649" lon="2.62649">
        <ele>670.1762695</ele>
        <time>2014-08-05T05:30:41Z</time>
      </trkpt>
      <trkpt lat="44.33636" lon="2.62652">
        <ele>670.1762695</ele>
        <time>2014-08-05T05:30:46Z</time>
      </trkpt>
      <trkpt lat="44.33621" lon="2.62647">
        <ele>671.1376953</ele>
        <time>2014-08-05T05:30:52Z</time>
      </trkpt>
      <trkpt lat="44.33618" lon="2.62647">
        <ele>672.098877</ele>
        <time>2014-08-05T05:30:54Z</time>
      </trkpt>
      <trkpt lat="44.33615" lon="2.62658">
        <ele>672.5795898</ele>
        <time>2014-08-05T05:30:58Z</time>
      </trkpt>
      <trkpt lat="44.33614" lon="2.62665">
        <ele>672.098877</ele>
        <time>2014-08-05T05:31:00Z</time>
      </trkpt>
      <trkpt lat="44.33612" lon="2.62681">
        <ele>672.098877</ele>
        <time>2014-08-05T05:31:05Z</time>
      </trkpt>
      <trkpt lat="44.33612" lon="2.62697">
        <ele>670.6569824</ele>
        <time>2014-08-05T05:31:10Z</time>
      </trkpt>
      <trkpt lat="44.33613" lon="2.62712">
        <ele>670.6569824</ele>
        <time>2014-08-05T05:31:15Z</time>
      </trkpt>
      <trkpt lat="44.3361" lon="2.62729">
        <ele>669.6958008</ele>
        <time>2014-08-05T05:31:21Z</time>
      </trkpt>
      <trkpt lat="44.33605" lon="2.62743">
        <ele>667.2922363</ele>
        <time>2014-08-05T05:31:26Z</time>
      </trkpt>
      <trkpt lat="44.336" lon="2.62758">
        <ele>665.8503418</ele>
        <time>2014-08-05T05:31:31Z</time>
      </trkpt>
      <trkpt lat="44.33589" lon="2.62774">
        <ele>664.4082031</ele>
        <time>2014-08-05T05:31:37Z</time>
      </trkpt>
      <trkpt lat="44.33583" lon="2.62785">
        <ele>662.9663086</ele>
        <time>2014-08-05T05:31:41Z</time>
      </trkpt>
      <trkpt lat="44.33578" lon="2.62796">
        <ele>662.005127</ele>
        <time>2014-08-05T05:31:45Z</time>
      </trkpt>
      <trkpt lat="44.33576" lon="2.62813">
        <ele>661.0437012</ele>
        <time>2014-08-05T05:31:50Z</time>
      </trkpt>
      <trkpt lat="44.3357" lon="2.62825">
        <ele>659.6018066</ele>
        <time>2014-08-05T05:31:54Z</time>
      </trkpt>
      <trkpt lat="44.3356" lon="2.6284">
        <ele>656.7177734</ele>
        <time>2014-08-05T05:31:59Z</time>
      </trkpt>
      <trkpt lat="44.33552" lon="2.62853">
        <ele>655.2758789</ele>
        <time>2014-08-05T05:32:03Z</time>
      </trkpt>
      <trkpt lat="44.33546" lon="2.62867">
        <ele>653.3532715</ele>
        <time>2014-08-05T05:32:08Z</time>
      </trkpt>
      <trkpt lat="44.33543" lon="2.62872">
        <ele>653.3532715</ele>
        <time>2014-08-05T05:32:11Z</time>
      </trkpt>
      <trkpt lat="44.33545" lon="2.62883">
        <ele>652.3918457</ele>
        <time>2014-08-05T05:32:17Z</time>
      </trkpt>
      <trkpt lat="44.3355" lon="2.62892">
        <ele>649.9885254</ele>
        <time>2014-08-05T05:32:23Z</time>
      </trkpt>
      <trkpt lat="44.33557" lon="2.62898">
        <ele>651.9111328</ele>
        <time>2014-08-05T05:32:29Z</time>
      </trkpt>
      <trkpt lat="44.33563" lon="2.62904">
        <ele>652.8725586</ele>
        <time>2014-08-05T05:32:35Z</time>
      </trkpt>
      <trkpt lat="44.33567" lon="2.62912">
        <ele>650.949707</ele>
        <time>2014-08-05T05:32:40Z</time>
      </trkpt>
    </trkseg>
  </trk>
</gpx>